Wetterdaten: Freitag, 20.08.2021
Datum Zeit Temp. Aussen Temp. o. S. Temp +5cm Feuchte Auss Luftdruck Regen Sonnenschein Regendauer Solar Windben Empfang
20.08.2021 00:00 17,1 C 15,6 C 13,9 C 85 % 1015,3 hPa 0,0 l/m 0 min 0 min 0 W/m 3,2 km/h (1 Bft) 95,74 %
20.08.2021 00:02 17,0 C 15,6 C 13,9 C 85 % 1015,4 hPa 0,0 l/m 0 min 0 min 0 W/m 3,2 km/h (1 Bft) 95,24 %
20.08.2021 00:04 17,0 C 15,6 C 13,9 C 85 % 1015,4 hPa 0,0 l/m 0 min 0 min 0 W/m 0,0 km/h (0 Bft) 93,62 %
20.08.2021 00:07 17,0 C 15,6 C 13,9 C 85 % 1015,4 hPa 0,0 l/m 0 min 0 min 0 W/m 3,2 km/h (1 Bft) 94,37 %
20.08.2021 00:08 17,0 C 15,6 C 13,9 C 85 % 1015,4 hPa 0,0 l/m 0 min 0 min 0 W/m 0,0 km/h (0 Bft) 100,00 %
20.08.2021 00:10 16,9 C 15,6 C 13,9 C 85 % 1015,3 hPa 0,0 l/m 0 min 0 min 0 W/m 3,2 km/h (1 Bft) 91,49 %
20.08.2021 00:12 16,9 C 15,6 C 13,9 C 85 % 1015,3 hPa 0,0 l/m 0 min 0 min 0 W/m 0,0 km/h (0 Bft) 95,65 %
20.08.2021 00:14 16,9 C 15,6 C 13,9 C 86 % 1015,4 hPa 0,0 l/m 0 min 0 min 0 W/m 0,0 km/h (0 Bft) 95,74 %
20.08.2021 00:16 16,9 C 15,6 C 13,9 C 86 % 1015,4 hPa 0,0 l/m 0 min 0 min 0 W/m 3,2 km/h (1 Bft) 93,62 %
20.08.2021 00:18 16,9 C 15,6 C 13,9 C 86 % 1015,4 hPa 0,0 l/m 0 min 0 min 0 W/m 3,2 km/h (1 Bft) 93,62 %
20.08.2021 00:20 16,8 C 15,6 C 13,9 C 86 % 1015,4 hPa 0,0 l/m 0 min 0 min 0 W/m 0,0 km/h (0 Bft) 93,62 %
20.08.2021 00:22 16,8 C 15,6 C 13,9 C 86 % 1015,3 hPa 0,0 l/m 0 min 0 min 0 W/m 3,2 km/h (1 Bft) 89,36 %
20.08.2021 00:24 16,8 C 15,6 C 13,9 C 86 % 1015,3 hPa 0,0 l/m 0 min 0 min 0 W/m 0,0 km/h (0 Bft) 95,65 %
20.08.2021 00:26 16,8 C 15,6 C 13,9 C 86 % 1015,4 hPa 0,0 l/m 0 min 0 min 0 W/m 3,2 km/h (1 Bft) 95,74 %
20.08.2021 00:28 16,7 C 15,6 C 13,9 C 87 % 1015,3 hPa 0,0 l/m 0 min 0 min 0 W/m 3,2 km/h (1 Bft) 95,74 %
20.08.2021 00:30 16,7 C 15,6 C 13,9 C 87 % 1015,4 hPa 0,0 l/m 0 min 0 min 0 W/m 6,4 km/h (2 Bft) 95,74 %
20.08.2021 00:32 16,7 C 15,6 C 13,9 C 87 % 1015,4 hPa 0,0 l/m 0 min 0 min 0 W/m 6,4 km/h (2 Bft) 95,74 %
20.08.2021 00:34 16,6 C 15,6 C 13,9 C 87 % 1015,4 hPa 0,0 l/m 0 min 0 min 0 W/m 3,2 km/h (1 Bft) 95,74 %
20.08.2021 00:36 16,6 C 15,6 C 13,9 C 87 % 1015,3 hPa 0,0 l/m 0 min 0 min 0 W/m 9,7 km/h (2 Bft) 97,83 %
20.08.2021 00:38 16,6 C 15,6 C 13,9 C 88 % 1015,3 hPa 0,0 l/m 0 min 0 min 0 W/m 3,2 km/h (1 Bft) 100,00 %
20.08.2021 00:40 16,6 C 15,6 C 13,9 C 88 % 1015,4 hPa 0,0 l/m 0 min 0 min 0 W/m 3,2 km/h (1 Bft) 100,00 %
20.08.2021 00:42 16,5 C 15,6 C 13,9 C 88 % 1015,4 hPa 0,0 l/m 0 min 0 min 0 W/m 6,4 km/h (2 Bft) 100,00 %
20.08.2021 00:44 16,5 C 15,6 C 13,9 C 88 % 1015,3 hPa 0,0 l/m 0 min 0 min 0 W/m 3,2 km/h (1 Bft) 100,00 %
20.08.2021 00:46 16,5 C 15,6 C 13,9 C 88 % 1015,3 hPa 0,0 l/m 0 min 0 min 0 W/m 3,2 km/h (1 Bft) 100,00 %
20.08.2021 00:48 16,5 C 15,6 C 13,9 C 88 % 1015,3 hPa 0,0 l/m 0 min 0 min 0 W/m 3,2 km/h (1 Bft) 100,00 %
20.08.2021 00:50 16,4 C 15,6 C 13,9 C 88 % 1015,3 hPa 0,0 l/m 0 min 0 min 0 W/m 6,4 km/h (2 Bft) 100,00 %
20.08.2021 00:52 16,4 C 15,6 C 13,9 C 88 % 1015,3 hPa 0,0 l/m 0 min 0 min 0 W/m 3,2 km/h (1 Bft) 97,87 %
20.08.2021 00:54 16,4 C 15,6 C 13,9 C 89 % 1015,3 hPa 0,0 l/m 0 min 0 min 0 W/m 3,2 km/h (1 Bft) 100,00 %
20.08.2021 00:56 16,4 C 15,6 C 13,9 C 89 % 1015,3 hPa 0,0 l/m 0 min 0 min 0 W/m 6,4 km/h (2 Bft) 100,00 %
20.08.2021 00:58 16,4 C 15,6 C 13,9 C 89 % 1015,3 hPa 0,0 l/m 0 min 0 min 0 W/m 12,9 km/h (3 Bft) 97,87 %
20.08.2021 01:00 16,4 C 15,6 C 13,9 C 89 % 1015,4 hPa 0,0 l/m 0 min 0 min 0 W/m 3,2 km/h (1 Bft) 100,00 %
20.08.2021 01:02 16,4 C 15,6 C 13,9 C 89 % 1015,4 hPa 0,0 l/m 0 min 0 min 0 W/m 6,4 km/h (2 Bft) 100,00 %
20.08.2021 01:04 16,4 C 15,6 C 14,5 C 89 % 1015,4 hPa 0,0 l/m 0 min 0 min 0 W/m 6,4 km/h (2 Bft) 100,00 %
20.08.2021 01:06 16,4 C 15,6 C 14,5 C 89 % 1015,4 hPa 0,0 l/m 0 min 0 min 0 W/m 6,4 km/h (2 Bft) 100,00 %
20.08.2021 01:08 16,4 C 15,6 C 14,5 C 90 % 1015,4 hPa 0,0 l/m 0 min 0 min 0 W/m 9,7 km/h (2 Bft) 100,00 %
20.08.2021 01:10 16,4 C 15,6 C 14,5 C 90 % 1015,3 hPa 0,0 l/m 0 min 0 min 0 W/m 3,2 km/h (1 Bft) 100,00 %
20.08.2021 01:12 16,4 C 15,6 C 14,5 C 90 % 1015,4 hPa 0,0 l/m 0 min 0 min 0 W/m 6,4 km/h (2 Bft) 100,00 %
20.08.2021 01:14 16,4 C 15,6 C 14,5 C 90 % 1015,4 hPa 0,0 l/m 0 min 0 min 0 W/m 6,4 km/h (2 Bft) 100,00 %
20.08.2021 01:16 16,4 C 15,6 C 14,5 C 90 % 1015,4 hPa 0,0 l/m 0 min 0 min 0 W/m 6,4 km/h (2 Bft) 100,00 %
20.08.2021 01:18 16,4 C 15,6 C 14,5 C 90 % 1015,4 hPa 0,0 l/m 0 min 0 min 0 W/m 9,7 km/h (2 Bft) 100,00 %
20.08.2021 01:20 16,4 C 15,6 C 14,5 C 90 % 1015,4 hPa 0,0 l/m 0 min 0 min 0 W/m 3,2 km/h (1 Bft) 100,00 %
20.08.2021 01:22 16,4 C 15,6 C 14,5 C 90 % 1015,4 hPa 0,0 l/m 0 min 0 min 0 W/m 6,4 km/h (2 Bft) 100,00 %
20.08.2021 01:24 16,4 C 15,6 C 14,5 C 90 % 1015,5 hPa 0,0 l/m 0 min 0 min 0 W/m 6,4 km/h (2 Bft) 100,00 %
20.08.2021 01:26 16,4 C 15,6 C 14,5 C 90 % 1015,4 hPa 0,0 l/m 0 min 0 min 0 W/m 6,4 km/h (2 Bft) 100,00 %
20.08.2021 01:28 16,4 C 15,6 C 14,5 C 90 % 1015,4 hPa 0,0 l/m 0 min 0 min 0 W/m 6,4 km/h (2 Bft) 100,00 %
20.08.2021 01:30 16,4 C 15,6 C 14,5 C 90 % 1015,4 hPa 0,0 l/m 0 min 0 min 0 W/m 6,4 km/h (2 Bft) 100,00 %
20.08.2021 01:32 16,4 C 15,6 C 14,5 C 90 % 1015,3 hPa 0,0 l/m 0 min 0 min 0 W/m 6,4 km/h (2 Bft) 97,92 %
20.08.2021 01:34 16,4 C 15,6 C 14,5 C 90 % 1015,4 hPa 0,0 l/m 0 min 0 min 0 W/m 6,4 km/h (2 Bft) 100,00 %
20.08.2021 01:36 16,4 C 15,6 C 14,5 C 90 % 1015,4 hPa 0,0 l/m 0 min 0 min 0 W/m 3,2 km/h (1 Bft) 100,00 %
20.08.2021 01:38 16,4 C 15,6 C 14,5 C 90 % 1015,4 hPa 0,0 l/m 0 min 0 min 0 W/m 3,2 km/h (1 Bft) 100,00 %
20.08.2021 01:40 16,3 C 15,6 C 14,5 C 90 % 1015,4 hPa 0,0 l/m 0 min 0 min 0 W/m 9,7 km/h (2 Bft) 97,87 %
20.08.2021 01:42 16,3 C 15,6 C 14,5 C 90 % 1015,3 hPa 0,0 l/m 0 min 0 min 0 W/m 6,4 km/h (2 Bft) 100,00 %
20.08.2021 01:44 16,3 C 15,6 C 14,5 C 90 % 1015,3 hPa 0,0 l/m 0 min 0 min 0 W/m 3,2 km/h (1 Bft) 97,87 %
20.08.2021 01:46 16,3 C 15,6 C 14,5 C 90 % 1015,3 hPa 0,0 l/m 0 min 0 min 0 W/m 6,4 km/h (2 Bft) 100,00 %
20.08.2021 01:48 16,3 C 15,6 C 13,9 C 90 % 1015,3 hPa 0,0 l/m 0 min 0 min 0 W/m 6,4 km/h (2 Bft) 100,00 %
20.08.2021 01:50 16,2 C 15,0 C 13,9 C 90 % 1015,4 hPa 0,0 l/m 0 min 0 min 0 W/m 3,2 km/h (1 Bft) 100,00 %
20.08.2021 01:52 16,2 C 15,0 C 13,9 C 90 % 1015,3 hPa 0,0 l/m 0 min 0 min 0 W/m 6,4 km/h (2 Bft) 97,87 %
20.08.2021 01:54 16,2 C 15,0 C 13,9 C 90 % 1015,3 hPa 0,0 l/m 0 min 0 min 0 W/m 3,2 km/h (1 Bft) 100,00 %
20.08.2021 01:56 16,1 C 15,0 C 13,9 C 90 % 1015,3 hPa 0,0 l/m 0 min 0 min 0 W/m 9,7 km/h (2 Bft) 97,87 %
20.08.2021 01:58 16,1 C 15,0 C 13,9 C 90 % 1015,4 hPa 0,0 l/m 0 min 0 min 0 W/m 6,4 km/h (2 Bft) 97,87 %
20.08.2021 02:00 16,1 C 15,0 C 13,9 C 90 % 1015,3 hPa 0,0 l/m 0 min 0 min 0 W/m 6,4 km/h (2 Bft) 97,83 %
20.08.2021 02:02 16,1 C 15,0 C 13,9 C 90 % 1015,3 hPa 0,0 l/m 0 min 0 min 0 W/m 9,7 km/h (2 Bft) 97,92 %
20.08.2021 02:04 16,0 C 15,0 C 13,9 C 90 % 1015,3 hPa 0,0 l/m 0 min 0 min 0 W/m 6,4 km/h (2 Bft) 97,87 %
20.08.2021 02:06 16,0 C 15,0 C 13,9 C 90 % 1015,3 hPa 0,0 l/m 0 min 0 min 0 W/m 9,7 km/h (2 Bft) 97,87 %
20.08.2021 02:08 16,0 C 15,0 C 13,9 C 90 % 1015,3 hPa 0,0 l/m 0 min 0 min 0 W/m 3,2 km/h (1 Bft) 97,87 %
20.08.2021 02:10 16,0 C 15,0 C 13,9 C 90 % 1015,3 hPa 0,0 l/m 0 min 0 min 0 W/m 12,9 km/h (3 Bft) 97,87 %
20.08.2021 02:12 15,9 C 15,0 C 13,9 C 90 % 1015,3 hPa 0,0 l/m 0 min 0 min 0 W/m 3,2 km/h (1 Bft) 97,83 %
20.08.2021 02:14 15,9 C 15,0 C 13,9 C 90 % 1015,3 hPa 0,0 l/m 0 min 0 min 0 W/m 6,4 km/h (2 Bft) 97,87 %
20.08.2021 02:16 15,9 C 15,0 C 13,9 C 90 % 1015,3 hPa 0,0 l/m 0 min 0 min 0 W/m 6,4 km/h (2 Bft) 95,74 %
20.08.2021 02:18 15,9 C 15,0 C 13,9 C 90 % 1015,3 hPa 0,0 l/m 0 min 0 min 0 W/m 6,4 km/h (2 Bft) 95,74 %
20.08.2021 02:20 15,8 C 15,0 C 13,9 C 90 % 1015,3 hPa 0,0 l/m 0 min 0 min 0 W/m 6,4 km/h (2 Bft) 95,74 %
20.08.2021 02:22 15,8 C 15,0 C 13,9 C 90 % 1015,3 hPa 0,0 l/m 0 min 0 min 0 W/m 9,7 km/h (2 Bft) 93,62 %
20.08.2021 02:24 15,8 C 14,4 C 13,9 C 90 % 1015,3 hPa 0,0 l/m 0 min 0 min 0 W/m 3,2 km/h (1 Bft) 91,30 %
20.08.2021 02:26 15,8 C 14,4 C 13,9 C 90 % 1015,4 hPa 0,0 l/m 0 min 0 min 0 W/m 6,4 km/h (2 Bft) 93,62 %
20.08.2021 02:28 15,8 C 14,4 C 13,4 C 90 % 1015,3 hPa 0,0 l/m 0 min 0 min 0 W/m 6,4 km/h (2 Bft) 97,87 %
20.08.2021 02:30 15,7 C 14,4 C 13,4 C 90 % 1015,4 hPa 0,0 l/m 0 min 0 min 0 W/m 3,2 km/h (1 Bft) 97,87 %
20.08.2021 02:32 15,6 C 14,4 C 13,4 C 90 % 1015,4 hPa 0,0 l/m 0 min 0 min 0 W/m 6,4 km/h (2 Bft) 95,74 %
20.08.2021 02:34 15,6 C 14,4 C 13,4 C 91 % 1015,4 hPa 0,0 l/m 0 min 0 min 0 W/m 3,2 km/h (1 Bft) 93,62 %
20.08.2021 02:36 15,6 C 14,4 C 13,4 C 91 % 1015,4 hPa 0,0 l/m 0 min 0 min 0 W/m 0,0 km/h (0 Bft) 95,65 %
20.08.2021 02:38 15,6 C 14,4 C 13,4 C 91 % 1015,5 hPa 0,0 l/m 0 min 0 min 0 W/m 0,0 km/h (0 Bft) 95,74 %
20.08.2021 02:40 15,6 C 14,4 C 13,4 C 90 % 1015,5 hPa 0,0 l/m 0 min 0 min 0 W/m 3,2 km/h (1 Bft) 96,00 %
20.08.2021 02:42 15,6 C 14,4 C 13,4 C 91 % 1015,4 hPa 0,0 l/m 0 min 0 min 0 W/m 3,2 km/h (1 Bft) 95,74 %
20.08.2021 02:44 15,6 C 15,0 C 13,9 C 91 % 1015,5 hPa 0,0 l/m 0 min 0 min 0 W/m 6,4 km/h (2 Bft) 94,74 %
20.08.2021 02:46 15,5 C 15,0 C 13,9 C 91 % 1015,5 hPa 0,0 l/m 0 min 0 min 0 W/m 6,4 km/h (2 Bft) 95,74 %
20.08.2021 02:48 15,6 C 15,0 C 13,9 C 91 % 1015,6 hPa 0,0 l/m 0 min 0 min 0 W/m 3,2 km/h (1 Bft) 95,65 %
20.08.2021 02:50 15,6 C 15,0 C 13,9 C 91 % 1015,5 hPa 0,0 l/m 0 min 0 min 0 W/m 6,4 km/h (2 Bft) 96,23 %
20.08.2021 02:52 15,6 C 15,0 C 13,9 C 91 % 1015,6 hPa 0,0 l/m 0 min 0 min 0 W/m 9,7 km/h (2 Bft) 95,74 %
20.08.2021 02:54 15,6 C 15,0 C 13,9 C 91 % 1015,5 hPa 0,0 l/m 0 min 0 min 0 W/m 3,2 km/h (1 Bft) 95,74 %
20.08.2021 02:56 15,6 C 15,0 C 13,9 C 91 % 1015,6 hPa 0,0 l/m 0 min 0 min 0 W/m 6,4 km/h (2 Bft) 94,00 %
20.08.2021 02:58 15,6 C 15,0 C 13,9 C 91 % 1015,6 hPa 0,0 l/m 0 min 0 min 0 W/m 3,2 km/h (1 Bft) 97,37 %
20.08.2021 03:00 15,6 C 15,0 C 13,9 C 91 % 1015,5 hPa 0,0 l/m 0 min 0 min 0 W/m 6,4 km/h (2 Bft) 93,48 %
20.08.2021 03:02 15,6 C 15,0 C 13,9 C 91 % 1015,5 hPa 0,0 l/m 0 min 0 min 0 W/m 6,4 km/h (2 Bft) 93,62 %
20.08.2021 03:04 15,6 C 15,0 C 13,9 C 91 % 1015,5 hPa 0,0 l/m 0 min 0 min 0 W/m 3,2 km/h (1 Bft) 95,74 %
20.08.2021 03:06 15,6 C 15,0 C 13,9 C 91 % 1015,5 hPa 0,0 l/m 0 min 0 min 0 W/m 3,2 km/h (1 Bft) 95,74 %
20.08.2021 03:08 15,6 C 15,0 C 13,9 C 91 % 1015,5 hPa 0,0 l/m 0 min 0 min 0 W/m 6,4 km/h (2 Bft) 95,74 %
20.08.2021 03:10 15,6 C 15,0 C 13,9 C 91 % 1015,5 hPa 0,0 l/m 0 min 0 min 0 W/m 3,2 km/h (1 Bft) 95,74 %
20.08.2021 03:12 15,6 C 15,0 C 13,9 C 92 % 1015,5 hPa 0,0 l/m 0 min 0 min 0 W/m 6,4 km/h (2 Bft) 97,83 %
20.08.2021 03:14 15,6 C 15,0 C 13,9 C 92 % 1015,5 hPa 0,0 l/m 0 min 0 min 0 W/m 9,7 km/h (2 Bft) 97,87 %
20.08.2021 03:16 15,6 C 15,0 C 13,9 C 92 % 1015,5 hPa 0,0 l/m 0 min 0 min 0 W/m 6,4 km/h (2 Bft) 97,87 %
20.08.2021 03:18 15,6 C 15,0 C 13,9 C 92 % 1015,5 hPa 0,0 l/m 0 min 0 min 0 W/m 6,4 km/h (2 Bft) 97,87 %
20.08.2021 03:20 15,5 C 15,0 C 13,9 C 92 % 1015,5 hPa 0,0 l/m 0 min 0 min 0 W/m 6,4 km/h (2 Bft) 100,00 %
20.08.2021 03:22 15,5 C 15,0 C 13,9 C 92 % 1015,5 hPa 0,0 l/m 0 min 0 min 0 W/m 6,4 km/h (2 Bft) 100,00 %
20.08.2021 03:24 15,5 C 15,0 C 13,9 C 92 % 1015,5 hPa 0,0 l/m 0 min 0 min 0 W/m 3,2 km/h (1 Bft) 100,00 %
20.08.2021 03:26 15,5 C 15,0 C 13,9 C 92 % 1015,5 hPa 0,0 l/m 0 min 0 min 0 W/m 6,4 km/h (2 Bft) 97,87 %
20.08.2021 03:28 15,5 C 14,4 C 13,9 C 92 % 1015,5 hPa 0,0 l/m 0 min 0 min 0 W/m 6,4 km/h (2 Bft) 100,00 %
20.08.2021 03:30 15,5 C 14,4 C 13,9 C 92 % 1015,5 hPa 0,0 l/m 0 min 0 min 0 W/m 6,4 km/h (2 Bft) 97,87 %
20.08.2021 03:32 15,4 C 14,4 C 13,9 C 92 % 1015,5 hPa 0,0 l/m 0 min 0 min 0 W/m 3,2 km/h (1 Bft) 100,00 %
20.08.2021 03:34 15,4 C 14,4 C 13,4 C 92 % 1015,5 hPa 0,0 l/m 0 min 0 min 0 W/m 6,4 km/h (2 Bft) 97,87 %
20.08.2021 03:36 15,4 C 14,4 C 13,4 C 92 % 1015,5 hPa 0,0 l/m 0 min 0 min 0 W/m 3,2 km/h (1 Bft) 98,08 %
20.08.2021 03:38 15,4 C 14,4 C 13,4 C 92 % 1015,6 hPa 0,0 l/m 0 min 0 min 0 W/m 3,2 km/h (1 Bft) 97,56 %
20.08.2021 03:40 15,4 C 14,4 C 13,4 C 92 % 1015,5 hPa 0,0 l/m 0 min 0 min 0 W/m 6,4 km/h (2 Bft) 100,00 %
20.08.2021 03:42 15,4 C 14,4 C 13,4 C 92 % 1015,5 hPa 0,0 l/m 0 min 0 min 0 W/m 6,4 km/h (2 Bft) 100,00 %
20.08.2021 03:44 15,4 C 14,4 C 13,4 C 92 % 1015,6 hPa 0,0 l/m 0 min 0 min 0 W/m 3,2 km/h (1 Bft) 95,74 %
20.08.2021 03:46 15,3 C 14,4 C 13,4 C 92 % 1015,5 hPa 0,0 l/m 0 min 0 min 0 W/m 12,9 km/h (3 Bft) 100,00 %
20.08.2021 03:48 15,3 C 14,4 C 13,4 C 92 % 1015,6 hPa 0,0 l/m 0 min 0 min 0 W/m 3,2 km/h (1 Bft) 97,87 %
20.08.2021 03:50 15,3 C 14,4 C 13,4 C 92 % 1015,6 hPa 0,0 l/m 0 min 0 min 0 W/m 6,4 km/h (2 Bft) 97,87 %
20.08.2021 03:52 15,3 C 14,4 C 13,4 C 92 % 1015,6 hPa 0,0 l/m 0 min 0 min 0 W/m 6,4 km/h (2 Bft) 97,87 %
20.08.2021 03:54 15,3 C 14,4 C 13,4 C 92 % 1015,6 hPa 0,0 l/m 0 min 0 min 0 W/m 3,2 km/h (1 Bft) 97,87 %
20.08.2021 03:56 15,3 C 14,4 C 13,4 C 92 % 1015,6 hPa 0,0 l/m 0 min 0 min 0 W/m 3,2 km/h (1 Bft) 97,87 %
20.08.2021 03:58 15,2 C 14,4 C 13,4 C 92 % 1015,6 hPa 0,0 l/m 0 min 0 min 0 W/m 3,2 km/h (1 Bft) 97,83 %
20.08.2021 04:00 15,2 C 14,4 C 13,4 C 92 % 1015,6 hPa 0,0 l/m 0 min 0 min 0 W/m 6,4 km/h (2 Bft) 97,87 %
20.08.2021 04:02 15,1 C 14,4 C 13,4 C 92 % 1015,6 hPa 0,0 l/m 0 min 0 min 0 W/m 3,2 km/h (1 Bft) 100,00 %
20.08.2021 04:04 15,1 C 14,4 C 13,4 C 92 % 1015,6 hPa 0,0 l/m 0 min 0 min 0 W/m 3,2 km/h (1 Bft) 100,00 %
20.08.2021 04:06 15,1 C 14,4 C 13,4 C 92 % 1015,6 hPa 0,0 l/m 0 min 0 min 0 W/m 3,2 km/h (1 Bft) 96,23 %
20.08.2021 04:08 15,1 C 14,4 C 13,4 C 92 % 1015,6 hPa 0,0 l/m 0 min 0 min 0 W/m 3,2 km/h (1 Bft) 97,87 %
20.08.2021 04:10 15,1 C 13,9 C 13,4 C 92 % 1015,6 hPa 0,0 l/m 0 min 0 min 0 W/m 3,2 km/h (1 Bft) 97,96 %
20.08.2021 04:12 15,0 C 13,9 C 13,4 C 92 % 1015,7 hPa 0,0 l/m 0 min 0 min 0 W/m 6,4 km/h (2 Bft) 97,87 %
20.08.2021 04:14 15,0 C 13,9 C 13,4 C 92 % 1015,7 hPa 0,0 l/m 0 min 0 min 0 W/m 6,4 km/h (2 Bft) 97,87 %
20.08.2021 04:16 15,0 C 13,9 C 13,4 C 92 % 1015,7 hPa 0,0 l/m 0 min 0 min 0 W/m 3,2 km/h (1 Bft) 97,87 %
20.08.2021 04:18 15,0 C 13,9 C 13,4 C 92 % 1015,7 hPa 0,0 l/m 0 min 0 min 0 W/m 3,2 km/h (1 Bft) 97,37 %
20.08.2021 04:20 15,0 C 13,9 C 13,4 C 92 % 1015,7 hPa 0,0 l/m 0 min 0 min 0 W/m 6,4 km/h (2 Bft) 100,00 %
20.08.2021 04:22 15,0 C 13,9 C 13,4 C 92 % 1015,7 hPa 0,0 l/m 0 min 0 min 0 W/m 6,4 km/h (2 Bft) 100,00 %
20.08.2021 04:24 14,9 C 13,9 C 13,4 C 92 % 1015,7 hPa 0,0 l/m 0 min 0 min 0 W/m 3,2 km/h (1 Bft) 100,00 %
20.08.2021 04:26 14,9 C 13,9 C 13,4 C 92 % 1015,7 hPa 0,0 l/m 0 min 0 min 0 W/m 3,2 km/h (1 Bft) 100,00 %
20.08.2021 04:28 14,9 C 13,9 C 13,4 C 93 % 1015,7 hPa 0,0 l/m 0 min 0 min 0 W/m 3,2 km/h (1 Bft) 100,00 %
20.08.2021 04:30 14,9 C 13,9 C 13,4 C 93 % 1015,7 hPa 0,0 l/m 0 min 0 min 0 W/m 3,2 km/h (1 Bft) 100,00 %
20.08.2021 04:32 14,9 C 13,9 C 13,4 C 93 % 1015,7 hPa 0,0 l/m 0 min 0 min 0 W/m 3,2 km/h (1 Bft) 100,00 %
20.08.2021 04:34 14,9 C 13,9 C 13,4 C 93 % 1015,7 hPa 0,0 l/m 0 min 0 min 0 W/m 3,2 km/h (1 Bft) 100,00 %
20.08.2021 04:36 14,8 C 13,9 C 13,4 C 93 % 1015,7 hPa 0,0 l/m 0 min 0 min 0 W/m 3,2 km/h (1 Bft) 100,00 %
20.08.2021 04:38 14,8 C 13,9 C 12,8 C 93 % 1015,7 hPa 0,0 l/m 0 min 0 min 0 W/m 3,2 km/h (1 Bft) 100,00 %
20.08.2021 04:40 14,8 C 13,9 C 12,8 C 93 % 1015,7 hPa 0,0 l/m 0 min 0 min 0 W/m 3,2 km/h (1 Bft) 97,87 %
20.08.2021 04:42 14,8 C 13,9 C 12,8 C 93 % 1015,7 hPa 0,0 l/m 0 min 0 min 0 W/m 3,2 km/h (1 Bft) 100,00 %
20.08.2021 04:44 14,7 C 13,9 C 12,8 C 93 % 1015,7 hPa 0,0 l/m 0 min 0 min 0 W/m 3,2 km/h (1 Bft) 97,87 %
20.08.2021 04:46 14,7 C 13,9 C 12,8 C 93 % 1015,7 hPa 0,0 l/m 0 min 0 min 0 W/m 3,2 km/h (1 Bft) 100,00 %
20.08.2021 04:48 14,6 C 13,9 C 12,8 C 93 % 1015,7 hPa 0,0 l/m 0 min 0 min 0 W/m 3,2 km/h (1 Bft) 100,00 %
20.08.2021 04:50 14,6 C 13,9 C 12,8 C 93 % 1015,7 hPa 0,0 l/m 0 min 0 min 0 W/m 3,2 km/h (1 Bft) 100,00 %
20.08.2021 04:52 14,6 C 13,9 C 12,8 C 93 % 1015,7 hPa 0,0 l/m 0 min 0 min 0 W/m 0,0 km/h (0 Bft) 100,00 %
20.08.2021 04:54 14,6 C 13,9 C 12,8 C 93 % 1015,7 hPa 0,0 l/m 0 min 0 min 0 W/m 3,2 km/h (1 Bft) 100,00 %
20.08.2021 04:56 14,6 C 13,9 C 12,8 C 93 % 1015,7 hPa 0,0 l/m 0 min 0 min 0 W/m 3,2 km/h (1 Bft) 100,00 %
20.08.2021 04:58 14,5 C 13,9 C 12,8 C 93 % 1015,7 hPa 0,0 l/m 0 min 0 min 0 W/m 0,0 km/h (0 Bft) 100,00 %
20.08.2021 05:00 14,5 C 13,9 C 12,8 C 93 % 1015,8 hPa 0,0 l/m 0 min 0 min 0 W/m 3,2 km/h (1 Bft) 97,87 %
20.08.2021 05:02 14,5 C 13,9 C 12,8 C 93 % 1015,7 hPa 0,0 l/m 0 min 0 min 0 W/m 3,2 km/h (1 Bft) 100,00 %
20.08.2021 05:04 14,5 C 13,9 C 12,8 C 93 % 1015,7 hPa 0,0 l/m 0 min 0 min 0 W/m 3,2 km/h (1 Bft) 100,00 %
20.08.2021 05:06 14,5 C 13,9 C 12,8 C 93 % 1015,7 hPa 0,0 l/m 0 min 0 min 0 W/m 0,0 km/h (0 Bft) 100,00 %
20.08.2021 05:08 14,4 C 13,9 C 12,8 C 93 % 1015,7 hPa 0,0 l/m 0 min 0 min 0 W/m 0,0 km/h (0 Bft) 100,00 %
20.08.2021 05:10 14,4 C 13,3 C 12,8 C 93 % 1015,7 hPa 0,0 l/m 0 min 0 min 0 W/m 3,2 km/h (1 Bft) 97,87 %
20.08.2021 05:12 14,4 C 13,3 C 12,8 C 93 % 1015,7 hPa 0,0 l/m 0 min 0 min 0 W/m 3,2 km/h (1 Bft) 97,87 %
20.08.2021 05:14 14,4 C 13,3 C 12,8 C 93 % 1015,7 hPa 0,0 l/m 0 min 0 min 0 W/m 3,2 km/h (1 Bft) 100,00 %
20.08.2021 05:16 14,3 C 13,9 C 12,8 C 93 % 1015,7 hPa 0,0 l/m 0 min 0 min 0 W/m 3,2 km/h (1 Bft) 97,87 %
20.08.2021 05:18 14,3 C 13,3 C 12,8 C 93 % 1015,7 hPa 0,0 l/m 0 min 0 min 0 W/m 3,2 km/h (1 Bft) 100,00 %
20.08.2021 05:20 14,3 C 13,3 C 12,8 C 93 % 1015,8 hPa 0,0 l/m 0 min 0 min 0 W/m 0,0 km/h (0 Bft) 93,48 %
20.08.2021 05:22 14,2 C 13,3 C 12,8 C 93 % 1015,8 hPa 0,0 l/m 0 min 0 min 0 W/m 0,0 km/h (0 Bft) 93,62 %
20.08.2021 05:24 14,2 C 13,3 C 12,8 C 93 % 1015,8 hPa 0,0 l/m 0 min 0 min 0 W/m 3,2 km/h (1 Bft) 95,74 %
20.08.2021 05:26 14,2 C 13,3 C 12,8 C 93 % 1015,8 hPa 0,0 l/m 0 min 0 min 0 W/m 3,2 km/h (1 Bft) 95,74 %
20.08.2021 05:28 14,2 C 13,3 C 12,8 C 93 % 1015,8 hPa 0,0 l/m 0 min 0 min 0 W/m 0,0 km/h (0 Bft) 93,62 %
20.08.2021 05:30 14,2 C 13,3 C 12,8 C 93 % 1015,9 hPa 0,0 l/m 0 min 0 min 0 W/m 0,0 km/h (0 Bft) 70,21 %
20.08.2021 05:32 14,2 C 13,3 C 12,8 C 93 % 1015,9 hPa 0,0 l/m 0 min 0 min 0 W/m 3,2 km/h (1 Bft) 80,43 %
20.08.2021 05:34 14,2 C 13,3 C 12,8 C 93 % 1015,8 hPa 0,0 l/m 0 min 0 min 0 W/m 3,2 km/h (1 Bft) 95,74 %
20.08.2021 05:36 14,2 C 13,3 C 12,8 C 93 % 1015,8 hPa 0,0 l/m 0 min 0 min 0 W/m 6,4 km/h (2 Bft) 93,62 %
20.08.2021 05:38 14,2 C 13,3 C 12,8 C 93 % 1015,9 hPa 0,0 l/m 0 min 0 min 0 W/m 6,4 km/h (2 Bft) 93,62 %
20.08.2021 05:40 14,2 C 13,3 C 12,8 C 93 % 1015,8 hPa 0,0 l/m 0 min 0 min 0 W/m 3,2 km/h (1 Bft) 91,49 %
20.08.2021 05:42 14,2 C 13,9 C 12,8 C 93 % 1015,9 hPa 0,0 l/m 0 min 0 min 0 W/m 6,4 km/h (2 Bft) 93,62 %
20.08.2021 05:44 14,2 C 13,9 C 12,8 C 93 % 1015,9 hPa 0,0 l/m 0 min 0 min 0 W/m 3,2 km/h (1 Bft) 94,55 %
20.08.2021 05:46 14,2 C 13,9 C 12,8 C 93 % 1015,9 hPa 0,0 l/m 0 min 0 min 0 W/m 9,7 km/h (2 Bft) 93,62 %
20.08.2021 05:48 14,2 C 13,9 C 12,8 C 93 % 1015,8 hPa 0,0 l/m 0 min 0 min 0 W/m 3,2 km/h (1 Bft) 92,11 %
20.08.2021 05:50 14,2 C 13,9 C 13,4 C 93 % 1015,8 hPa 0,0 l/m 0 min 0 min 0 W/m 6,4 km/h (2 Bft) 93,62 %
20.08.2021 05:52 14,2 C 13,9 C 13,4 C 93 % 1015,8 hPa 0,0 l/m 0 min 0 min 0 W/m 6,4 km/h (2 Bft) 93,62 %
20.08.2021 05:54 14,2 C 13,9 C 13,4 C 93 % 1015,9 hPa 0,0 l/m 0 min 0 min 0 W/m 6,4 km/h (2 Bft) 91,49 %
20.08.2021 05:56 14,2 C 13,9 C 13,4 C 93 % 1015,9 hPa 0,0 l/m 0 min 0 min 0 W/m 6,4 km/h (2 Bft) 93,48 %
20.08.2021 05:58 14,2 C 13,9 C 13,4 C 93 % 1015,9 hPa 0,0 l/m 0 min 0 min 0 W/m 6,4 km/h (2 Bft) 95,74 %
20.08.2021 06:00 14,3 C 13,9 C 13,4 C 93 % 1015,9 hPa 0,0 l/m 0 min 0 min 0 W/m 3,2 km/h (1 Bft) 95,74 %
20.08.2021 06:02 14,3 C 13,9 C 13,4 C 93 % 1015,9 hPa 0,0 l/m 0 min 0 min 0 W/m 3,2 km/h (1 Bft) 97,87 %
20.08.2021 06:04 14,3 C 13,9 C 13,4 C 93 % 1015,9 hPa 0,0 l/m 0 min 0 min 0 W/m 6,4 km/h (2 Bft) 93,62 %
20.08.2021 06:08 14,3 C 13,9 C 13,4 C 93 % 1015,9 hPa 0,0 l/m 0 min 0 min 0 W/m 6,4 km/h (2 Bft) 95,05 %
20.08.2021 06:10 14,4 C 13,9 C 13,4 C 93 % 1016,0 hPa 0,0 l/m 0 min 0 min 0 W/m 6,4 km/h (2 Bft) 98,00 %
20.08.2021 06:12 14,4 C 13,9 C 13,4 C 93 % 1016,0 hPa 0,0 l/m 0 min 0 min 0 W/m 3,2 km/h (1 Bft) 97,87 %
20.08.2021 06:14 14,4 C 13,9 C 13,4 C 93 % 1016,0 hPa 0,0 l/m 0 min 0 min 0 W/m 3,2 km/h (1 Bft) 100,00 %
20.08.2021 06:16 14,4 C 13,9 C 13,4 C 93 % 1016,0 hPa 0,0 l/m 0 min 0 min 0 W/m 6,4 km/h (2 Bft) 97,22 %
20.08.2021 06:18 14,4 C 13,9 C 13,4 C 93 % 1016,0 hPa 0,0 l/m 0 min 0 min 0 W/m 3,2 km/h (1 Bft) 97,83 %
20.08.2021 06:20 14,4 C 13,9 C 13,4 C 93 % 1016,0 hPa 0,0 l/m 0 min 0 min 0 W/m 6,4 km/h (2 Bft) 100,00 %
20.08.2021 06:22 14,4 C 13,9 C 13,4 C 93 % 1016,0 hPa 0,0 l/m 0 min 0 min 0 W/m 3,2 km/h (1 Bft) 100,00 %
20.08.2021 06:24 14,4 C 13,9 C 13,4 C 93 % 1016,0 hPa 0,0 l/m 0 min 0 min 0 W/m 6,4 km/h (2 Bft) 100,00 %
20.08.2021 06:26 14,5 C 13,9 C 13,4 C 93 % 1016,0 hPa 0,0 l/m 0 min 0 min 0 W/m 6,4 km/h (2 Bft) 100,00 %
20.08.2021 06:28 14,5 C 13,9 C 13,4 C 93 % 1015,9 hPa 0,0 l/m 0 min 0 min 0 W/m 9,7 km/h (2 Bft) 97,87 %
20.08.2021 06:30 14,5 C 13,9 C 13,4 C 93 % 1016,0 hPa 0,0 l/m 0 min 0 min 0 W/m 6,4 km/h (2 Bft) 97,83 %
20.08.2021 06:32 14,5 C 13,9 C 13,4 C 93 % 1015,9 hPa 0,0 l/m 0 min 0 min 0 W/m 6,4 km/h (2 Bft) 100,00 %
20.08.2021 06:34 14,5 C 13,9 C 13,4 C 93 % 1015,9 hPa 0,0 l/m 0 min 0 min 0 W/m 6,4 km/h (2 Bft) 100,00 %
20.08.2021 06:36 14,5 C 13,9 C 13,4 C 93 % 1015,9 hPa 0,0 l/m 0 min 0 min 0 W/m 9,7 km/h (2 Bft) 100,00 %
20.08.2021 06:38 14,5 C 13,9 C 13,4 C 93 % 1016,0 hPa 0,0 l/m 0 min 0 min 0 W/m 12,9 km/h (3 Bft) 100,00 %
20.08.2021 06:40 14,5 C 13,9 C 13,4 C 93 % 1016,1 hPa 0,0 l/m 0 min 0 min 4 W/m 12,9 km/h (3 Bft) 100,00 %
20.08.2021 06:42 14,6 C 13,9 C 13,4 C 93 % 1016,0 hPa 0,0 l/m 0 min 0 min 5 W/m 6,4 km/h (2 Bft) 100,00 %
20.08.2021 06:44 14,6 C 13,9 C 13,4 C 93 % 1016,1 hPa 0,0 l/m 0 min 0 min 5 W/m 12,9 km/h (3 Bft) 100,00 %
20.08.2021 06:46 14,6 C 13,9 C 13,4 C 93 % 1016,1 hPa 0,0 l/m 0 min 0 min 6 W/m 6,4 km/h (2 Bft) 100,00 %
20.08.2021 06:48 14,6 C 13,9 C 13,4 C 93 % 1016,1 hPa 0,0 l/m 0 min 0 min 7 W/m 3,2 km/h (1 Bft) 91,49 %
20.08.2021 06:50 14,6 C 14,4 C 13,4 C 93 % 1016,1 hPa 0,0 l/m 0 min 0 min 9 W/m 16,1 km/h (3 Bft) 100,00 %
20.08.2021 06:52 14,6 C 14,4 C 13,4 C 93 % 1016,1 hPa 0,0 l/m 0 min 0 min 9 W/m 6,4 km/h (2 Bft) 100,00 %
20.08.2021 06:54 14,6 C 14,4 C 13,4 C 93 % 1016,1 hPa 0,0 l/m 0 min 0 min 11 W/m 9,7 km/h (2 Bft) 100,00 %
20.08.2021 06:56 14,6 C 14,4 C 13,4 C 93 % 1016,1 hPa 0,0 l/m 0 min 0 min 11 W/m 6,4 km/h (2 Bft) 93,62 %
20.08.2021 06:58 14,7 C 14,4 C 13,4 C 93 % 1016,1 hPa 0,0 l/m 0 min 0 min 12 W/m 6,4 km/h (2 Bft) 100,00 %
20.08.2021 07:00 14,7 C 14,4 C 13,4 C 93 % 1016,1 hPa 0,0 l/m 0 min 0 min 15 W/m 6,4 km/h (2 Bft) 100,00 %
20.08.2021 07:02 14,7 C 14,4 C 13,4 C 93 % 1016,1 hPa 0,0 l/m 0 min 0 min 19 W/m 9,7 km/h (2 Bft) 100,00 %
20.08.2021 07:04 14,8 C 14,4 C 13,4 C 93 % 1016,1 hPa 0,0 l/m 0 min 0 min 21 W/m 6,4 km/h (2 Bft) 100,00 %
20.08.2021 07:06 14,8 C 14,4 C 13,9 C 93 % 1016,1 hPa 0,0 l/m 0 min 0 min 24 W/m 9,7 km/h (2 Bft) 100,00 %
20.08.2021 07:08 14,8 C 14,4 C 13,9 C 93 % 1016,1 hPa 0,0 l/m 0 min 0 min 25 W/m 9,7 km/h (2 Bft) 100,00 %
20.08.2021 07:10 14,8 C 14,4 C 13,9 C 93 % 1016,1 hPa 0,0 l/m 0 min 0 min 27 W/m 9,7 km/h (2 Bft) 100,00 %
20.08.2021 07:12 14,8 C 14,4 C 13,9 C 93 % 1016,1 hPa 0,0 l/m 0 min 0 min 35 W/m 9,7 km/h (2 Bft) 100,00 %
20.08.2021 07:14 14,9 C 14,4 C 13,9 C 93 % 1016,1 hPa 0,0 l/m 0 min 0 min 40 W/m 9,7 km/h (2 Bft) 100,00 %
20.08.2021 07:16 14,9 C 14,4 C 13,9 C 94 % 1016,1 hPa 0,0 l/m 0 min 0 min 44 W/m 6,4 km/h (2 Bft) 100,00 %
20.08.2021 07:18 14,9 C 14,4 C 13,9 C 94 % 1016,1 hPa 0,0 l/m 0 min 0 min 40 W/m 6,4 km/h (2 Bft) 100,00 %
20.08.2021 07:20 14,9 C 14,4 C 13,9 C 94 % 1016,2 hPa 0,0 l/m 0 min 0 min 39 W/m 6,4 km/h (2 Bft) 97,87 %
20.08.2021 07:22 15,0 C 15,0 C 13,9 C 94 % 1016,2 hPa 0,0 l/m 0 min 0 min 43 W/m 12,9 km/h (3 Bft) 100,00 %
20.08.2021 07:24 15,0 C 15,0 C 13,9 C 94 % 1016,2 hPa 0,0 l/m 0 min 0 min 46 W/m 6,4 km/h (2 Bft) 100,00 %
20.08.2021 07:26 15,0 C 15,0 C 13,9 C 93 % 1016,2 hPa 0,0 l/m 0 min 0 min 41 W/m 9,7 km/h (2 Bft) 97,83 %
20.08.2021 07:28 15,1 C 15,0 C 13,9 C 94 % 1016,2 hPa 0,0 l/m 0 min 0 min 40 W/m 3,2 km/h (1 Bft) 100,00 %
20.08.2021 07:30 15,1 C 15,0 C 13,9 C 94 % 1016,3 hPa 0,0 l/m 0 min 0 min 40 W/m 3,2 km/h (1 Bft) 97,87 %
20.08.2021 07:32 15,1 C 15,0 C 13,9 C 93 % 1016,2 hPa 0,0 l/m 0 min 0 min 40 W/m 6,4 km/h (2 Bft) 97,87 %
20.08.2021 07:34 15,1 C 15,0 C 13,9 C 93 % 1016,3 hPa 0,0 l/m 0 min 0 min 40 W/m 9,7 km/h (2 Bft) 97,73 %
20.08.2021 07:36 15,2 C 15,0 C 13,9 C 93 % 1016,2 hPa 0,0 l/m 0 min 0 min 43 W/m 3,2 km/h (1 Bft) 97,87 %
20.08.2021 07:38 15,2 C 15,0 C 14,5 C 94 % 1016,3 hPa 0,0 l/m 0 min 0 min 44 W/m 6,4 km/h (2 Bft) 97,87 %
20.08.2021 07:40 15,3 C 15,0 C 14,5 C 94 % 1016,3 hPa 0,0 l/m 0 min 0 min 44 W/m 6,4 km/h (2 Bft) 97,83 %
20.08.2021 07:42 15,3 C 15,0 C 14,5 C 94 % 1016,3 hPa 0,0 l/m 0 min 0 min 45 W/m 6,4 km/h (2 Bft) 97,87 %
20.08.2021 07:44 15,3 C 15,0 C 14,5 C 94 % 1016,3 hPa 0,0 l/m 0 min 0 min 48 W/m 6,4 km/h (2 Bft) 98,00 %
20.08.2021 07:46 15,3 C 15,0 C 14,5 C 94 % 1016,3 hPa 0,0 l/m 0 min 0 min 52 W/m 12,9 km/h (3 Bft) 93,62 %
20.08.2021 07:48 15,4 C 15,0 C 14,5 C 94 % 1016,3 hPa 0,0 l/m 0 min 0 min 57 W/m 3,2 km/h (1 Bft) 91,49 %
20.08.2021 07:50 15,4 C 15,0 C 14,5 C 93 % 1016,3 hPa 0,0 l/m 0 min 0 min 59 W/m 9,7 km/h (2 Bft) 97,83 %
20.08.2021 07:52 15,4 C 15,6 C 14,5 C 93 % 1016,3 hPa 0,0 l/m 0 min 0 min 61 W/m 3,2 km/h (1 Bft) 95,74 %
20.08.2021 07:54 15,4 C 15,6 C 14,5 C 93 % 1016,3 hPa 0,0 l/m 0 min 0 min 64 W/m 3,2 km/h (1 Bft) 93,62 %
20.08.2021 07:56 15,5 C 15,6 C 14,5 C 93 % 1016,3 hPa 0,0 l/m 0 min 0 min 69 W/m 3,2 km/h (1 Bft) 95,74 %
20.08.2021 07:58 15,5 C 15,6 C 14,5 C 93 % 1016,3 hPa 0,0 l/m 0 min 0 min 74 W/m 3,2 km/h (1 Bft) 97,87 %
20.08.2021 08:00 15,5 C 15,6 C 14,5 C 93 % 1016,3 hPa 0,0 l/m 0 min 0 min 81 W/m 6,4 km/h (2 Bft) 95,74 %
20.08.2021 08:02 15,5 C 15,6 C 14,5 C 93 % 1016,4 hPa 0,0 l/m 0 min 0 min 84 W/m 3,2 km/h (1 Bft) 93,48 %
20.08.2021 08:04 15,6 C 15,6 C 14,5 C 94 % 1016,4 hPa 0,0 l/m 0 min 0 min 81 W/m 6,4 km/h (2 Bft) 94,00 %
20.08.2021 08:06 15,6 C 15,6 C 14,5 C 93 % 1016,4 hPa 0,0 l/m 0 min 0 min 70 W/m 6,4 km/h (2 Bft) 93,62 %
20.08.2021 08:08 15,6 C 15,6 C 14,5 C 93 % 1016,4 hPa 0,0 l/m 0 min 0 min 76 W/m 6,4 km/h (2 Bft) 97,87 %
20.08.2021 08:10 15,6 C 15,6 C 15,0 C 93 % 1016,5 hPa 0,0 l/m 0 min 0 min 90 W/m 3,2 km/h (1 Bft) 97,14 %
20.08.2021 08:12 15,7 C 15,6 C 15,0 C 93 % 1016,5 hPa 0,0 l/m 0 min 0 min 92 W/m 3,2 km/h (1 Bft) 95,74 %
20.08.2021 08:14 15,8 C 15,6 C 15,0 C 93 % 1016,4 hPa 0,0 l/m 0 min 0 min 111 W/m 3,2 km/h (1 Bft) 95,74 %
20.08.2021 08:16 15,8 C 16,1 C 15,0 C 93 % 1016,4 hPa 0,0 l/m 0 min 0 min 106 W/m 6,4 km/h (2 Bft) 95,65 %
20.08.2021 08:18 15,8 C 16,1 C 15,0 C 93 % 1016,5 hPa 0,0 l/m 0 min 0 min 103 W/m 6,4 km/h (2 Bft) 95,74 %
20.08.2021 08:20 15,9 C 16,1 C 15,0 C 93 % 1016,6 hPa 0,0 l/m 0 min 0 min 87 W/m 3,2 km/h (1 Bft) 95,74 %
20.08.2021 08:22 15,9 C 16,1 C 15,0 C 93 % 1016,5 hPa 0,0 l/m 0 min 0 min 80 W/m 3,2 km/h (1 Bft) 91,49 %
20.08.2021 08:24 16,0 C 16,1 C 15,0 C 93 % 1016,5 hPa 0,0 l/m 0 min 0 min 79 W/m 9,7 km/h (2 Bft) 96,23 %
20.08.2021 08:26 16,0 C 16,1 C 15,0 C 93 % 1016,5 hPa 0,0 l/m 0 min 0 min 78 W/m 16,1 km/h (3 Bft) 93,48 %
20.08.2021 08:28 16,0 C 16,1 C 15,0 C 93 % 1016,5 hPa 0,0 l/m 0 min 0 min 82 W/m 6,4 km/h (2 Bft) 94,00 %
20.08.2021 08:30 16,0 C 16,1 C 15,0 C 93 % 1016,5 hPa 0,0 l/m 0 min 0 min 90 W/m 12,9 km/h (3 Bft) 95,74 %
20.08.2021 08:32 16,1 C 16,1 C 15,0 C 93 % 1016,6 hPa 0,0 l/m 0 min 0 min 97 W/m 9,7 km/h (2 Bft) 95,74 %
20.08.2021 08:34 16,1 C 16,1 C 15,0 C 93 % 1016,5 hPa 0,0 l/m 0 min 0 min 95 W/m 6,4 km/h (2 Bft) 95,74 %
20.08.2021 08:36 16,1 C 16,1 C 15,6 C 93 % 1016,5 hPa 0,0 l/m 0 min 0 min 87 W/m 12,9 km/h (3 Bft) 93,88 %
20.08.2021 08:38 16,2 C 16,1 C 15,6 C 93 % 1016,5 hPa 0,0 l/m 0 min 0 min 74 W/m 9,7 km/h (2 Bft) 95,74 %
20.08.2021 08:40 16,2 C 16,1 C 15,6 C 93 % 1016,6 hPa 0,0 l/m 0 min 0 min 57 W/m 6,4 km/h (2 Bft) 80,85 %
20.08.2021 08:42 16,3 C 16,1 C 15,6 C 93 % 1016,6 hPa 0,0 l/m 0 min 0 min 50 W/m 6,4 km/h (2 Bft) 80,85 %
20.08.2021 08:44 16,3 C 16,1 C 15,0 C 93 % 1016,6 hPa 0,0 l/m 0 min 0 min 54 W/m 9,7 km/h (2 Bft) 51,06 %
20.08.2021 08:46 16,3 C 16,1 C 15,0 C 93 % 1016,6 hPa 0,0 l/m 0 min 0 min 68 W/m 3,2 km/h (1 Bft) 82,61 %
20.08.2021 08:47 16,3 C 16,1 C 15,6 C 93 % 1016,7 hPa 0,0 l/m 0 min 0 min 82 W/m 6,4 km/h (2 Bft) 82,98 %
20.08.2021 08:50 16,4 C 16,1 C 15,6 C 93 % 1016,6 hPa 0,0 l/m 0 min 0 min 105 W/m 6,4 km/h (2 Bft) 91,49 %
20.08.2021 08:52 16,4 C 16,7 C 15,6 C 93 % 1016,6 hPa 0,0 l/m 0 min 0 min 120 W/m 6,4 km/h (2 Bft) 91,49 %
20.08.2021 08:54 16,4 C 16,7 C 15,6 C 93 % 1016,7 hPa 0,0 l/m 0 min 0 min 117 W/m 6,4 km/h (2 Bft) 82,98 %
20.08.2021 08:56 16,5 C 16,7 C 15,6 C 93 % 1016,7 hPa 0,0 l/m 0 min 0 min 107 W/m 3,2 km/h (1 Bft) 89,36 %
20.08.2021 08:58 16,5 C 16,7 C 15,6 C 93 % 1016,7 hPa 0,0 l/m 0 min 0 min 108 W/m 6,4 km/h (2 Bft) 95,65 %
20.08.2021 09:00 16,5 C 16,7 C 15,6 C 93 % 1016,7 hPa 0,0 l/m 0 min 0 min 112 W/m 9,7 km/h (2 Bft) 95,74 %
20.08.2021 09:02 16,6 C 16,7 C 15,6 C 93 % 1016,7 hPa 0,0 l/m 0 min 0 min 135 W/m 6,4 km/h (2 Bft) 95,74 %
20.08.2021 09:04 16,6 C 16,7 C 15,6 C 93 % 1016,7 hPa 0,0 l/m 0 min 0 min 161 W/m 12,9 km/h (3 Bft) 100,00 %
20.08.2021 09:06 16,7 C 17,2 C 16,1 C 93 % 1016,8 hPa 0,0 l/m 0 min 0 min 178 W/m 12,9 km/h (3 Bft) 97,87 %
20.08.2021 09:08 16,8 C 17,2 C 16,1 C 93 % 1016,7 hPa 0,0 l/m 2 min 0 min 205 W/m 6,4 km/h (2 Bft) 93,62 %
20.08.2021 09:10 16,8 C 17,8 C 16,1 C 93 % 1016,7 hPa 0,0 l/m 2 min 0 min 206 W/m 6,4 km/h (2 Bft) 97,83 %
20.08.2021 09:12 16,9 C 17,8 C 16,7 C 92 % 1016,7 hPa 0,0 l/m 2 min 0 min 269 W/m 6,4 km/h (2 Bft) 95,74 %
20.08.2021 09:14 17,0 C 18,3 C 16,7 C 92 % 1016,7 hPa 0,0 l/m 2 min 0 min 275 W/m 3,2 km/h (1 Bft) 91,49 %
20.08.2021 09:16 17,0 C 18,9 C 16,7 C 93 % 1016,7 hPa 0,0 l/m 2 min 0 min 316 W/m 6,4 km/h (2 Bft) 93,62 %
20.08.2021 09:18 17,1 C 18,9 C 16,7 C 92 % 1016,8 hPa 0,0 l/m 2 min 0 min 269 W/m 6,4 km/h (2 Bft) 100,00 %
20.08.2021 09:20 17,3 C 18,9 C 16,7 C 92 % 1016,8 hPa 0,0 l/m 2 min 0 min 224 W/m 9,7 km/h (2 Bft) 97,87 %
20.08.2021 09:22 17,3 C 18,3 C 16,7 C 92 % 1016,8 hPa 0,0 l/m 2 min 0 min 261 W/m 12,9 km/h (3 Bft) 97,83 %
20.08.2021 09:24 17,4 C 18,3 C 16,7 C 92 % 1016,8 hPa 0,0 l/m 0 min 0 min 195 W/m 6,4 km/h (2 Bft) 91,49 %
20.08.2021 09:26 17,5 C 18,3 C 16,7 C 91 % 1016,8 hPa 0,0 l/m 0 min 0 min 127 W/m 6,4 km/h (2 Bft) 97,87 %
20.08.2021 09:28 17,5 C 17,8 C 16,7 C 91 % 1016,8 hPa 0,0 l/m 0 min 0 min 137 W/m 6,4 km/h (2 Bft) 95,74 %
20.08.2021 09:30 17,5 C 17,8 C 16,7 C 91 % 1016,8 hPa 0,0 l/m 0 min 0 min 160 W/m 6,4 km/h (2 Bft) 100,00 %
20.08.2021 09:32 17,6 C 17,8 C 16,7 C 90 % 1016,9 hPa 0,0 l/m 0 min 0 min 152 W/m 12,9 km/h (3 Bft) 95,65 %
20.08.2021 09:34 17,6 C 17,8 C 16,7 C 90 % 1016,9 hPa 0,0 l/m 0 min 0 min 141 W/m 12,9 km/h (3 Bft) 97,87 %
20.08.2021 09:36 17,6 C 17,8 C 16,7 C 90 % 1016,8 hPa 0,0 l/m 0 min 0 min 152 W/m 12,9 km/h (3 Bft) 100,00 %
20.08.2021 09:38 17,6 C 18,3 C 16,7 C 90 % 1016,8 hPa 0,0 l/m 2 min 0 min 337 W/m 6,4 km/h (2 Bft) 97,87 %
20.08.2021 09:40 17,7 C 18,9 C 16,7 C 90 % 1016,8 hPa 0,0 l/m 2 min 0 min 501 W/m 3,2 km/h (1 Bft) 95,74 %
20.08.2021 09:42 17,8 C 18,9 C 17,3 C 90 % 1016,8 hPa 0,0 l/m 2 min 0 min 501 W/m 12,9 km/h (3 Bft) 97,87 %
20.08.2021 09:44 17,8 C 18,9 C 17,3 C 90 % 1016,8 hPa 0,0 l/m 2 min 0 min 255 W/m 16,1 km/h (3 Bft) 97,87 %
20.08.2021 09:46 17,9 C 18,9 C 17,3 C 89 % 1016,9 hPa 0,0 l/m 2 min 0 min 300 W/m 12,9 km/h (3 Bft) 97,83 %
20.08.2021 09:48 18,0 C 18,9 C 17,3 C 89 % 1016,8 hPa 0,0 l/m 2 min 0 min 329 W/m 22,5 km/h (4 Bft) 97,87 %
20.08.2021 09:50 18,0 C 18,9 C 17,3 C 89 % 1016,8 hPa 0,0 l/m 0 min 0 min 171 W/m 16,1 km/h (3 Bft) 97,87 %
20.08.2021 09:52 18,0 C 18,9 C 17,3 C 89 % 1016,8 hPa 0,0 l/m 0 min 0 min 170 W/m 12,9 km/h (3 Bft) 97,87 %
20.08.2021 09:54 18,1 C 18,9 C 17,3 C 88 % 1016,8 hPa 0,0 l/m 0 min 0 min 189 W/m 16,1 km/h (3 Bft) 97,87 %
20.08.2021 09:56 18,2 C 20,0 C 17,3 C 88 % 1016,8 hPa 0,0 l/m 0 min 0 min 219 W/m 16,1 km/h (3 Bft) 97,83 %
20.08.2021 09:58 18,3 C 20,0 C 17,3 C 88 % 1016,8 hPa 0,0 l/m 0 min 0 min 251 W/m 29,0 km/h (5 Bft) 97,87 %
20.08.2021 10:00 18,3 C 19,4 C 17,3 C 88 % 1016,9 hPa 0,0 l/m 0 min 0 min 254 W/m 25,7 km/h (4 Bft) 93,62 %
20.08.2021 10:02 18,4 C 19,4 C 17,3 C 88 % 1016,8 hPa 0,0 l/m 0 min 0 min 249 W/m 16,1 km/h (3 Bft) 95,74 %
20.08.2021 10:04 18,4 C 19,4 C 17,8 C 87 % 1016,8 hPa 0,0 l/m 0 min 0 min 257 W/m 12,9 km/h (3 Bft) 97,87 %
20.08.2021 10:06 18,5 C 19,4 C 17,8 C 87 % 1016,8 hPa 0,0 l/m 2 min 0 min 273 W/m 25,7 km/h (4 Bft) 97,87 %
20.08.2021 10:08 18,5 C 19,4 C 17,8 C 87 % 1016,9 hPa 0,0 l/m 2 min 0 min 291 W/m 9,7 km/h (2 Bft) 97,83 %
20.08.2021 10:10 18,6 C 19,4 C 17,8 C 87 % 1016,9 hPa 0,0 l/m 2 min 0 min 290 W/m 19,3 km/h (3 Bft) 97,87 %
20.08.2021 10:12 18,6 C 19,4 C 17,8 C 87 % 1016,9 hPa 0,0 l/m 2 min 0 min 276 W/m 12,9 km/h (3 Bft) 100,00 %
20.08.2021 10:14 18,7 C 19,4 C 17,8 C 87 % 1016,8 hPa 0,0 l/m 2 min 0 min 298 W/m 9,7 km/h (2 Bft) 97,87 %
20.08.2021 10:16 18,8 C 20,0 C 18,4 C 87 % 1016,9 hPa 0,0 l/m 2 min 0 min 317 W/m 16,1 km/h (3 Bft) 100,00 %
20.08.2021 10:18 18,9 C 19,4 C 18,4 C 87 % 1016,9 hPa 0,0 l/m 2 min 0 min 297 W/m 12,9 km/h (3 Bft) 100,00 %
20.08.2021 10:20 18,9 C 19,4 C 18,4 C 86 % 1016,9 hPa 0,0 l/m 0 min 0 min 235 W/m 12,9 km/h (3 Bft) 100,00 %
20.08.2021 10:22 18,9 C 19,4 C 17,8 C 86 % 1016,9 hPa 0,0 l/m 0 min 0 min 224 W/m 6,4 km/h (2 Bft) 97,87 %
20.08.2021 10:24 18,9 C 19,4 C 18,4 C 86 % 1016,9 hPa 0,0 l/m 0 min 0 min 275 W/m 9,7 km/h (2 Bft) 100,00 %
20.08.2021 10:26 18,9 C 19,4 C 18,4 C 86 % 1016,9 hPa 0,0 l/m 2 min 0 min 290 W/m 16,1 km/h (3 Bft) 97,87 %
20.08.2021 10:28 18,9 C 19,4 C 17,8 C 85 % 1016,9 hPa 0,0 l/m 0 min 0 min 226 W/m 6,4 km/h (2 Bft) 100,00 %
20.08.2021 10:30 18,9 C 19,4 C 17,8 C 85 % 1017,0 hPa 0,0 l/m 0 min 0 min 213 W/m 19,3 km/h (3 Bft) 97,87 %
20.08.2021 10:32 19,0 C 19,4 C 17,8 C 85 % 1016,9 hPa 0,0 l/m 2 min 0 min 287 W/m 9,7 km/h (2 Bft) 100,00 %
20.08.2021 10:34 19,0 C 20,0 C 18,4 C 85 % 1016,9 hPa 0,0 l/m 2 min 0 min 393 W/m 6,4 km/h (2 Bft) 97,87 %
20.08.2021 10:36 19,1 C 20,6 C 19,5 C 85 % 1016,9 hPa 0,0 l/m 2 min 0 min 662 W/m 12,9 km/h (3 Bft) 100,00 %
20.08.2021 10:38 19,1 C 20,6 C 19,5 C 85 % 1017,0 hPa 0,0 l/m 2 min 0 min 771 W/m 16,1 km/h (3 Bft) 97,87 %
20.08.2021 10:40 19,3 C 20,6 C 18,9 C 85 % 1016,9 hPa 0,0 l/m 0 min 0 min 268 W/m 6,4 km/h (2 Bft) 100,00 %
20.08.2021 10:42 19,3 C 20,0 C 18,9 C 85 % 1016,9 hPa 0,0 l/m 0 min 0 min 196 W/m 6,4 km/h (2 Bft) 95,65 %
20.08.2021 10:44 19,3 C 20,0 C 18,4 C 85 % 1017,0 hPa 0,0 l/m 0 min 0 min 159 W/m 9,7 km/h (2 Bft) 100,00 %
20.08.2021 10:46 19,3 C 19,4 C 18,4 C 84 % 1017,0 hPa 0,0 l/m 0 min 0 min 148 W/m 12,9 km/h (3 Bft) 95,74 %
20.08.2021 10:48 19,3 C 18,9 C 17,8 C 84 % 1017,0 hPa 0,0 l/m 0 min 0 min 138 W/m 16,1 km/h (3 Bft) 95,74 %
20.08.2021 10:50 19,2 C 18,9 C 17,3 C 84 % 1017,1 hPa 0,0 l/m 0 min 0 min 128 W/m 16,1 km/h (3 Bft) 95,74 %
20.08.2021 10:52 19,1 C 18,9 C 17,3 C 85 % 1017,1 hPa 0,0 l/m 0 min 0 min 134 W/m 6,4 km/h (2 Bft) 97,87 %
20.08.2021 10:54 19,1 C 18,3 C 17,3 C 85 % 1017,1 hPa 0,0 l/m 0 min 0 min 126 W/m 6,4 km/h (2 Bft) 97,83 %
20.08.2021 10:56 19,1 C 18,3 C 16,7 C 86 % 1017,1 hPa 0,0 l/m 0 min 0 min 109 W/m 9,7 km/h (2 Bft) 97,87 %
20.08.2021 10:58 19,1 C 18,3 C 16,7 C 86 % 1017,2 hPa 0,0 l/m 0 min 2 min 106 W/m 9,7 km/h (2 Bft) 97,87 %
20.08.2021 11:00 19,0 C 17,8 C 16,1 C 87 % 1017,2 hPa 0,2 l/m 0 min 2 min 80 W/m 6,4 km/h (2 Bft) 97,87 %
20.08.2021 11:02 18,9 C 17,2 C 15,6 C 87 % 1017,2 hPa 0,0 l/m 0 min 2 min 75 W/m 6,4 km/h (2 Bft) 95,74 %
20.08.2021 11:04 18,9 C 17,2 C 15,6 C 88 % 1017,2 hPa 0,0 l/m 0 min 2 min 101 W/m 3,2 km/h (1 Bft) 97,87 %
20.08.2021 11:06 18,8 C 17,2 C 15,6 C 89 % 1017,2 hPa 0,2 l/m 0 min 0 min 128 W/m 3,2 km/h (1 Bft) 97,83 %
20.08.2021 11:08 18,7 C 17,2 C 15,6 C 89 % 1017,2 hPa 0,0 l/m 0 min 0 min 155 W/m 3,2 km/h (1 Bft) 97,87 %
20.08.2021 11:10 18,7 C 17,2 C 15,6 C 90 % 1017,3 hPa 0,0 l/m 0 min 0 min 167 W/m 6,4 km/h (2 Bft) 95,74 %
20.08.2021 11:12 18,6 C 17,8 C 15,6 C 90 % 1017,3 hPa 0,0 l/m 0 min 0 min 163 W/m 3,2 km/h (1 Bft) 97,87 %
20.08.2021 11:14 18,6 C 17,8 C 15,6 C 90 % 1017,3 hPa 0,0 l/m 0 min 0 min 159 W/m 6,4 km/h (2 Bft) 95,74 %
20.08.2021 11:16 18,5 C 17,8 C 15,6 C 91 % 1017,3 hPa 0,0 l/m 0 min 0 min 168 W/m 6,4 km/h (2 Bft) 97,87 %
20.08.2021 11:18 18,5 C 17,8 C 15,6 C 91 % 1017,2 hPa 0,0 l/m 0 min 0 min 194 W/m 12,9 km/h (3 Bft) 97,83 %
20.08.2021 11:20 18,4 C 17,8 C 15,6 C 91 % 1017,2 hPa 0,0 l/m 0 min 0 min 232 W/m 6,4 km/h (2 Bft) 93,62 %
20.08.2021 11:22 18,3 C 18,3 C 16,1 C 91 % 1017,2 hPa 0,0 l/m 0 min 0 min 268 W/m 12,9 km/h (3 Bft) 97,87 %
20.08.2021 11:24 18,3 C 18,3 C 16,1 C 92 % 1017,3 hPa 0,0 l/m 0 min 0 min 279 W/m 12,9 km/h (3 Bft) 97,87 %
20.08.2021 11:26 18,3 C 18,3 C 16,1 C 92 % 1017,2 hPa 0,0 l/m 2 min 0 min 334 W/m 12,9 km/h (3 Bft) 95,74 %
20.08.2021 11:28 18,3 C 19,4 C 16,7 C 92 % 1017,2 hPa 0,0 l/m 2 min 0 min 468 W/m 12,9 km/h (3 Bft) 95,74 %
20.08.2021 11:30 18,4 C 19,4 C 16,7 C 92 % 1017,2 hPa 0,0 l/m 2 min 0 min 779 W/m 12,9 km/h (3 Bft) 97,83 %
20.08.2021 11:32 18,4 C 19,4 C 16,7 C 92 % 1017,3 hPa 0,0 l/m 2 min 0 min 396 W/m 12,9 km/h (3 Bft) 95,74 %
20.08.2021 11:34 18,4 C 18,9 C 16,7 C 92 % 1017,2 hPa 0,0 l/m 0 min 0 min 243 W/m 16,1 km/h (3 Bft) 97,87 %
20.08.2021 11:36 18,4 C 18,9 C 16,1 C 92 % 1017,2 hPa 0,0 l/m 0 min 0 min 190 W/m 9,7 km/h (2 Bft) 97,87 %
20.08.2021 11:38 18,4 C 18,3 C 16,1 C 92 % 1017,3 hPa 0,0 l/m 0 min 0 min 147 W/m 22,5 km/h (4 Bft) 95,74 %
20.08.2021 11:40 18,3 C 17,8 C 16,1 C 92 % 1017,3 hPa 0,0 l/m 0 min 2 min 167 W/m 12,9 km/h (3 Bft) 93,62 %
20.08.2021 11:42 18,3 C 17,8 C 16,1 C 92 % 1017,2 hPa 0,0 l/m 0 min 2 min 212 W/m 22,5 km/h (4 Bft) 93,48 %
20.08.2021 11:44 18,3 C 17,8 C 16,1 C 92 % 1017,3 hPa 0,0 l/m 0 min 0 min 294 W/m 16,1 km/h (3 Bft) 95,74 %
20.08.2021 11:46 18,3 C 18,3 C 16,7 C 92 % 1017,2 hPa 0,0 l/m 2 min 0 min 374 W/m 6,4 km/h (2 Bft) 95,74 %
20.08.2021 11:48 18,3 C 18,9 C 17,3 C 93 % 1017,2 hPa 0,0 l/m 2 min 0 min 550 W/m 16,1 km/h (3 Bft) 95,74 %
20.08.2021 11:50 18,4 C 19,4 C 17,3 C 93 % 1017,3 hPa 0,0 l/m 2 min 0 min 571 W/m 19,3 km/h (3 Bft) 93,62 %
20.08.2021 11:52 18,4 C 19,4 C 17,3 C 93 % 1017,3 hPa 0,0 l/m 2 min 0 min 408 W/m 12,9 km/h (3 Bft) 93,48 %
20.08.2021 11:54 18,4 C 19,4 C 17,3 C 93 % 1017,3 hPa 0,0 l/m 2 min 0 min 379 W/m 12,9 km/h (3 Bft) 91,49 %
20.08.2021 11:56 18,5 C 19,4 C 17,3 C 93 % 1017,2 hPa 0,0 l/m 2 min 0 min 353 W/m 25,7 km/h (4 Bft) 95,74 %
20.08.2021 11:58 18,5 C 19,4 C 17,3 C 92 % 1017,3 hPa 0,0 l/m 2 min 0 min 359 W/m 19,3 km/h (3 Bft) 95,74 %
20.08.2021 12:00 18,5 C 19,4 C 17,3 C 92 % 1017,3 hPa 0,0 l/m 0 min 0 min 296 W/m 16,1 km/h (3 Bft) 95,74 %
20.08.2021 12:02 18,5 C 18,9 C 17,3 C 91 % 1017,3 hPa 0,0 l/m 0 min 0 min 286 W/m 19,3 km/h (3 Bft) 95,74 %
20.08.2021 12:04 18,5 C 18,9 C 17,3 C 91 % 1017,3 hPa 0,0 l/m 0 min 0 min 284 W/m 6,4 km/h (2 Bft) 95,65 %
20.08.2021 12:08 18,5 C 18,9 C 17,3 C 90 % 1017,4 hPa 0,0 l/m 0 min 0 min 285 W/m 19,3 km/h (3 Bft) 95,12 %
20.08.2021 12:10 18,5 C 18,9 C 17,3 C 90 % 1017,3 hPa 0,0 l/m 0 min 0 min 288 W/m 22,5 km/h (4 Bft) 95,74 %
20.08.2021 12:12 18,6 C 18,9 C 17,3 C 90 % 1017,4 hPa 0,0 l/m 0 min 0 min 311 W/m 6,4 km/h (2 Bft) 89,36 %
20.08.2021 12:14 18,7 C 18,9 C 17,3 C 90 % 1017,4 hPa 0,0 l/m 2 min 0 min 380 W/m 9,7 km/h (2 Bft) 97,87 %
20.08.2021 12:16 18,7 C 19,4 C 17,8 C 90 % 1017,4 hPa 0,0 l/m 0 min 0 min 359 W/m 9,7 km/h (2 Bft) 97,87 %
20.08.2021 12:18 18,8 C 19,4 C 17,8 C 90 % 1017,4 hPa 0,0 l/m 0 min 0 min 305 W/m 12,9 km/h (3 Bft) 95,74 %
20.08.2021 12:20 18,8 C 19,4 C 17,8 C 90 % 1017,3 hPa 0,0 l/m 0 min 0 min 301 W/m 16,1 km/h (3 Bft) 95,65 %
20.08.2021 12:22 18,8 C 19,4 C 17,8 C 90 % 1017,4 hPa 0,0 l/m 0 min 0 min 331 W/m 12,9 km/h (3 Bft) 97,87 %
20.08.2021 12:24 18,8 C 19,4 C 17,8 C 90 % 1017,4 hPa 0,0 l/m 0 min 0 min 361 W/m 12,9 km/h (3 Bft) 97,87 %
20.08.2021 12:26 18,8 C 18,9 C 17,8 C 89 % 1017,4 hPa 0,0 l/m 0 min 0 min 346 W/m 12,9 km/h (3 Bft) 97,87 %
20.08.2021 12:28 18,7 C 18,9 C 17,3 C 89 % 1017,4 hPa 0,0 l/m 0 min 0 min 293 W/m 9,7 km/h (2 Bft) 100,00 %
20.08.2021 12:30 18,7 C 18,9 C 16,7 C 89 % 1017,4 hPa 0,0 l/m 0 min 0 min 273 W/m 12,9 km/h (3 Bft) 97,87 %
20.08.2021 12:32 18,7 C 18,9 C 16,7 C 90 % 1017,4 hPa 0,0 l/m 0 min 0 min 280 W/m 6,4 km/h (2 Bft) 100,00 %
20.08.2021 12:34 18,8 C 18,9 C 17,3 C 90 % 1017,4 hPa 0,0 l/m 0 min 0 min 314 W/m 9,7 km/h (2 Bft) 100,00 %
20.08.2021 12:36 18,8 C 19,4 C 17,3 C 90 % 1017,4 hPa 0,0 l/m 0 min 0 min 359 W/m 9,7 km/h (2 Bft) 100,00 %
20.08.2021 12:38 18,8 C 19,4 C 17,8 C 91 % 1017,4 hPa 0,0 l/m 2 min 0 min 435 W/m 6,4 km/h (2 Bft) 100,00 %
20.08.2021 12:40 18,9 C 20,0 C 17,8 C 90 % 1017,5 hPa 0,0 l/m 2 min 0 min 539 W/m 12,9 km/h (3 Bft) 100,00 %
20.08.2021 12:42 18,9 C 20,0 C 18,4 C 90 % 1017,5 hPa 0,0 l/m 2 min 0 min 484 W/m 12,9 km/h (3 Bft) 100,00 %
20.08.2021 12:44 19,0 C 20,0 C 18,4 C 90 % 1017,5 hPa 0,0 l/m 0 min 0 min 349 W/m 12,9 km/h (3 Bft) 100,00 %
20.08.2021 12:46 19,0 C 20,0 C 18,4 C 90 % 1017,4 hPa 0,0 l/m 0 min 0 min 363 W/m 12,9 km/h (3 Bft) 100,00 %
20.08.2021 12:48 19,0 C 19,4 C 17,8 C 89 % 1017,5 hPa 0,0 l/m 2 min 0 min 374 W/m 12,9 km/h (3 Bft) 100,00 %
20.08.2021 12:50 19,1 C 19,4 C 17,8 C 90 % 1017,4 hPa 0,0 l/m 2 min 0 min 421 W/m 9,7 km/h (2 Bft) 100,00 %
20.08.2021 12:52 19,1 C 20,0 C 17,8 C 90 % 1017,4 hPa 0,0 l/m 2 min 0 min 510 W/m 16,1 km/h (3 Bft) 100,00 %
20.08.2021 12:54 19,1 C 20,0 C 17,8 C 90 % 1017,4 hPa 0,0 l/m 2 min 0 min 580 W/m 9,7 km/h (2 Bft) 100,00 %
20.08.2021 12:56 19,2 C 20,0 C 17,8 C 90 % 1017,4 hPa 0,0 l/m 2 min 0 min 831 W/m 12,9 km/h (3 Bft) 100,00 %
20.08.2021 12:58 19,4 C 21,1 C 18,4 C 90 % 1017,4 hPa 0,0 l/m 2 min 0 min 884 W/m 12,9 km/h (3 Bft) 97,87 %
20.08.2021 13:00 19,6 C 21,7 C 18,4 C 90 % 1017,3 hPa 0,0 l/m 2 min 0 min 911 W/m 9,7 km/h (2 Bft) 97,87 %
20.08.2021 13:02 19,8 C 21,1 C 18,9 C 89 % 1017,4 hPa 0,0 l/m 2 min 0 min 388 W/m 6,4 km/h (2 Bft) 100,00 %
20.08.2021 13:04 19,9 C 21,1 C 18,9 C 88 % 1017,4 hPa 0,0 l/m 0 min 0 min 285 W/m 6,4 km/h (2 Bft) 100,00 %
20.08.2021 13:06 20,0 C 21,1 C 18,9 C 88 % 1017,4 hPa 0,0 l/m 0 min 0 min 300 W/m 6,4 km/h (2 Bft) 97,83 %
20.08.2021 13:08 20,1 C 21,1 C 19,5 C 88 % 1017,3 hPa 0,0 l/m 0 min 0 min 358 W/m 12,9 km/h (3 Bft) 100,00 %
20.08.2021 13:10 20,2 C 21,1 C 19,5 C 87 % 1017,4 hPa 0,0 l/m 0 min 0 min 369 W/m 9,7 km/h (2 Bft) 97,14 %
20.08.2021 13:12 20,3 C 21,7 C 19,5 C 86 % 1017,4 hPa 0,0 l/m 2 min 0 min 468 W/m 6,4 km/h (2 Bft) 100,00 %
20.08.2021 13:14 20,4 C 21,7 C 19,5 C 85 % 1017,3 hPa 0,0 l/m 2 min 0 min 824 W/m 12,9 km/h (3 Bft) 100,00 %
20.08.2021 13:16 20,5 C 22,2 C 19,5 C 84 % 1017,3 hPa 0,0 l/m 2 min 0 min 949 W/m 16,1 km/h (3 Bft) 97,87 %
20.08.2021 13:18 20,7 C 22,2 C 19,5 C 83 % 1017,3 hPa 0,0 l/m 2 min 0 min 898 W/m 12,9 km/h (3 Bft) 100,00 %
20.08.2021 13:20 20,9 C 22,2 C 19,5 C 83 % 1017,3 hPa 0,0 l/m 2 min 0 min 954 W/m 12,9 km/h (3 Bft) 100,00 %
20.08.2021 13:22 21,0 C 22,8 C 19,5 C 83 % 1017,3 hPa 0,0 l/m 2 min 0 min 1009 W/m 9,7 km/h (2 Bft) 100,00 %
20.08.2021 13:24 21,2 C 22,8 C 19,5 C 82 % 1017,3 hPa 0,0 l/m 2 min 0 min 1009 W/m 12,9 km/h (3 Bft) 97,87 %
20.08.2021 13:26 21,3 C 22,8 C 20,0 C 81 % 1017,3 hPa 0,0 l/m 2 min 0 min 983 W/m 9,7 km/h (2 Bft) 95,74 %
20.08.2021 13:28 21,4 C 22,8 C 20,0 C 82 % 1017,3 hPa 0,0 l/m 2 min 0 min 380 W/m 16,1 km/h (3 Bft) 97,87 %
20.08.2021 13:30 21,5 C 22,8 C 20,0 C 81 % 1017,4 hPa 0,0 l/m 2 min 0 min 400 W/m 29,0 km/h (5 Bft) 97,83 %
20.08.2021 13:32 21,6 C 22,8 C 20,0 C 81 % 1017,4 hPa 0,0 l/m 2 min 0 min 404 W/m 3,2 km/h (1 Bft) 95,74 %
20.08.2021 13:34 21,6 C 22,2 C 20,0 C 80 % 1017,3 hPa 0,0 l/m 2 min 0 min 434 W/m 6,4 km/h (2 Bft) 98,11 %
20.08.2021 13:36 21,6 C 22,2 C 20,0 C 80 % 1017,3 hPa 0,0 l/m 2 min 0 min 426 W/m 6,4 km/h (2 Bft) 97,87 %
20.08.2021 13:38 21,7 C 22,2 C 20,0 C 80 % 1017,2 hPa 0,0 l/m 2 min 0 min 467 W/m 12,9 km/h (3 Bft) 93,62 %
20.08.2021 13:40 21,7 C 22,8 C 20,0 C 79 % 1017,2 hPa 0,0 l/m 2 min 0 min 511 W/m 9,7 km/h (2 Bft) 97,83 %
20.08.2021 13:42 21,8 C 22,8 C 20,0 C 79 % 1017,2 hPa 0,0 l/m 2 min 0 min 459 W/m 12,9 km/h (3 Bft) 95,74 %
20.08.2021 13:44 21,8 C 22,8 C 20,0 C 79 % 1017,2 hPa 0,0 l/m 2 min 0 min 562 W/m 6,4 km/h (2 Bft) 97,87 %
20.08.2021 13:46 21,8 C 23,3 C 20,0 C 78 % 1017,2 hPa 0,0 l/m 0 min 0 min 374 W/m 9,7 km/h (2 Bft) 95,12 %
20.08.2021 13:48 21,9 C 23,9 C 20,0 C 78 % 1017,2 hPa 0,0 l/m 0 min 0 min 374 W/m 6,4 km/h (2 Bft) 94,34 %
20.08.2021 13:50 22,0 C 23,9 C 20,0 C 78 % 1017,1 hPa 0,0 l/m 0 min 0 min 374 W/m 6,4 km/h (2 Bft) 95,74 %
20.08.2021 13:52 22,0 C 23,9 C 20,6 C 78 % 1017,1 hPa 0,0 l/m 2 min 0 min 380 W/m 9,7 km/h (2 Bft) 95,65 %
20.08.2021 13:54 22,0 C 23,3 C 20,6 C 77 % 1017,2 hPa 0,0 l/m 2 min 0 min 392 W/m 9,7 km/h (2 Bft) 95,74 %
20.08.2021 13:56 22,1 C 23,3 C 20,6 C 76 % 1017,3 hPa 0,0 l/m 2 min 0 min 378 W/m 12,9 km/h (3 Bft) 95,12 %
20.08.2021 13:58 22,1 C 22,8 C 20,6 C 76 % 1017,2 hPa 0,0 l/m 0 min 0 min 342 W/m 6,4 km/h (2 Bft) 94,34 %
20.08.2021 14:00 22,1 C 22,2 C 20,0 C 75 % 1017,2 hPa 0,0 l/m 0 min 0 min 295 W/m 12,9 km/h (3 Bft) 95,74 %
20.08.2021 14:02 22,0 C 22,2 C 20,0 C 75 % 1017,2 hPa 0,0 l/m 0 min 0 min 297 W/m 9,7 km/h (2 Bft) 95,83 %
20.08.2021 14:04 22,0 C 21,7 C 20,0 C 75 % 1017,2 hPa 0,0 l/m 0 min 0 min 328 W/m 6,4 km/h (2 Bft) 95,65 %
20.08.2021 14:06 22,0 C 22,2 C 20,0 C 76 % 1017,2 hPa 0,0 l/m 0 min 0 min 343 W/m 6,4 km/h (2 Bft) 95,74 %
20.08.2021 14:08 21,9 C 22,2 C 20,0 C 77 % 1017,3 hPa 0,0 l/m 0 min 0 min 344 W/m 6,4 km/h (2 Bft) 97,87 %
20.08.2021 14:10 22,0 C 22,2 C 20,0 C 77 % 1017,3 hPa 0,0 l/m 0 min 0 min 335 W/m 6,4 km/h (2 Bft) 97,87 %
20.08.2021 14:12 22,0 C 22,2 C 20,0 C 77 % 1017,2 hPa 0,0 l/m 0 min 0 min 337 W/m 6,4 km/h (2 Bft) 97,87 %
20.08.2021 14:14 22,0 C 22,2 C 20,0 C 76 % 1017,3 hPa 0,0 l/m 0 min 0 min 352 W/m 6,4 km/h (2 Bft) 95,65 %
20.08.2021 14:16 22,0 C 22,2 C 20,0 C 76 % 1017,3 hPa 0,0 l/m 0 min 0 min 342 W/m 6,4 km/h (2 Bft) 95,74 %
20.08.2021 14:18 22,0 C 22,2 C 20,0 C 76 % 1017,3 hPa 0,0 l/m 0 min 0 min 335 W/m 6,4 km/h (2 Bft) 97,87 %
20.08.2021 14:20 22,0 C 22,2 C 20,0 C 76 % 1017,3 hPa 0,0 l/m 0 min 0 min 311 W/m 12,9 km/h (3 Bft) 97,87 %
20.08.2021 14:22 22,0 C 22,2 C 20,0 C 76 % 1017,3 hPa 0,0 l/m 0 min 0 min 288 W/m 12,9 km/h (3 Bft) 95,74 %
20.08.2021 14:24 22,0 C 22,2 C 20,0 C 76 % 1017,3 hPa 0,0 l/m 0 min 0 min 242 W/m 6,4 km/h (2 Bft) 100,00 %
20.08.2021 14:26 22,0 C 21,7 C 20,0 C 75 % 1017,3 hPa 0,0 l/m 0 min 0 min 206 W/m 6,4 km/h (2 Bft) 100,00 %
20.08.2021 14:28 21,9 C 21,7 C 19,5 C 76 % 1017,3 hPa 0,0 l/m 0 min 0 min 186 W/m 6,4 km/h (2 Bft) 100,00 %
20.08.2021 14:30 21,9 C 21,7 C 19,5 C 76 % 1017,3 hPa 0,0 l/m 0 min 0 min 167 W/m 6,4 km/h (2 Bft) 100,00 %
20.08.2021 14:32 21,8 C 21,1 C 19,5 C 76 % 1017,4 hPa 0,0 l/m 0 min 0 min 157 W/m 6,4 km/h (2 Bft) 97,87 %
20.08.2021 14:34 21,8 C 21,1 C 19,5 C 76 % 1017,3 hPa 0,0 l/m 0 min 0 min 156 W/m 6,4 km/h (2 Bft) 100,00 %
20.08.2021 14:36 21,7 C 21,1 C 19,5 C 76 % 1017,4 hPa 0,0 l/m 0 min 0 min 167 W/m 9,7 km/h (2 Bft) 95,74 %
20.08.2021 14:38 21,7 C 21,1 C 18,9 C 76 % 1017,3 hPa 0,0 l/m 0 min 0 min 184 W/m 6,4 km/h (2 Bft) 100,00 %
20.08.2021 14:40 21,6 C 21,1 C 18,9 C 76 % 1017,4 hPa 0,0 l/m 0 min 0 min 202 W/m 9,7 km/h (2 Bft) 100,00 %
20.08.2021 14:42 21,6 C 21,1 C 18,9 C 76 % 1017,4 hPa 0,0 l/m 0 min 0 min 217 W/m 6,4 km/h (2 Bft) 97,87 %
20.08.2021 14:44 21,5 C 21,1 C 19,5 C 76 % 1017,4 hPa 0,0 l/m 0 min 0 min 233 W/m 6,4 km/h (2 Bft) 97,87 %
20.08.2021 14:46 21,5 C 21,1 C 19,5 C 76 % 1017,4 hPa 0,0 l/m 0 min 0 min 250 W/m 6,4 km/h (2 Bft) 100,00 %
20.08.2021 14:48 21,5 C 21,7 C 19,5 C 76 % 1017,4 hPa 0,0 l/m 0 min 0 min 266 W/m 9,7 km/h (2 Bft) 100,00 %
20.08.2021 14:50 21,5 C 21,7 C 19,5 C 76 % 1017,4 hPa 0,0 l/m 0 min 0 min 276 W/m 6,4 km/h (2 Bft) 100,00 %
20.08.2021 14:52 21,5 C 21,7 C 19,5 C 76 % 1017,4 hPa 0,0 l/m 0 min 0 min 279 W/m 9,7 km/h (2 Bft) 97,87 %
20.08.2021 14:54 21,5 C 21,7 C 19,5 C 77 % 1017,4 hPa 0,0 l/m 0 min 0 min 284 W/m 6,4 km/h (2 Bft) 97,87 %
20.08.2021 14:56 21,5 C 22,2 C 19,5 C 77 % 1017,4 hPa 0,0 l/m 0 min 0 min 290 W/m 6,4 km/h (2 Bft) 97,87 %
20.08.2021 14:58 21,6 C 22,2 C 19,5 C 77 % 1017,4 hPa 0,0 l/m 0 min 0 min 285 W/m 3,2 km/h (1 Bft) 97,92 %
20.08.2021 15:00 21,7 C 22,2 C 19,5 C 77 % 1017,4 hPa 0,0 l/m 0 min 0 min 287 W/m 9,7 km/h (2 Bft) 97,83 %
20.08.2021 15:02 21,7 C 21,7 C 19,5 C 77 % 1017,4 hPa 0,0 l/m 0 min 0 min 293 W/m 6,4 km/h (2 Bft) 93,75 %
20.08.2021 15:04 21,8 C 21,7 C 19,5 C 76 % 1017,4 hPa 0,0 l/m 0 min 0 min 293 W/m 6,4 km/h (2 Bft) 97,87 %
20.08.2021 15:06 21,7 C 21,7 C 19,5 C 76 % 1017,4 hPa 0,0 l/m 0 min 0 min 294 W/m 6,4 km/h (2 Bft) 97,87 %
20.08.2021 15:08 21,8 C 21,7 C 19,5 C 76 % 1017,4 hPa 0,0 l/m 0 min 0 min 295 W/m 9,7 km/h (2 Bft) 93,62 %
20.08.2021 15:10 21,8 C 22,2 C 19,5 C 76 % 1017,4 hPa 0,0 l/m 0 min 0 min 312 W/m 9,7 km/h (2 Bft) 85,11 %
20.08.2021 15:12 21,8 C 22,2 C 20,0 C 76 % 1017,4 hPa 0,0 l/m 0 min 0 min 332 W/m 12,9 km/h (3 Bft) 82,61 %
20.08.2021 15:14 21,8 C 22,2 C 20,0 C 76 % 1017,4 hPa 0,0 l/m 0 min 0 min 334 W/m 12,9 km/h (3 Bft) 87,23 %
20.08.2021 15:16 21,8 C 22,2 C 20,0 C 75 % 1017,4 hPa 0,0 l/m 0 min 0 min 317 W/m 12,9 km/h (3 Bft) 95,74 %
20.08.2021 15:18 21,8 C 22,2 C 20,0 C 75 % 1017,4 hPa 0,0 l/m 0 min 0 min 315 W/m 12,9 km/h (3 Bft) 95,74 %
20.08.2021 15:20 21,8 C 22,2 C 20,0 C 75 % 1017,4 hPa 0,0 l/m 0 min 0 min 312 W/m 12,9 km/h (3 Bft) 91,49 %
20.08.2021 15:22 21,8 C 22,2 C 20,0 C 75 % 1017,4 hPa 0,0 l/m 0 min 0 min 291 W/m 6,4 km/h (2 Bft) 91,49 %
20.08.2021 15:24 21,8 C 22,2 C 20,0 C 76 % 1017,4 hPa 0,0 l/m 0 min 0 min 278 W/m 6,4 km/h (2 Bft) 91,30 %
20.08.2021 15:26 21,9 C 22,2 C 20,0 C 76 % 1017,4 hPa 0,0 l/m 0 min 0 min 275 W/m 6,4 km/h (2 Bft) 97,87 %
20.08.2021 15:28 21,9 C 22,2 C 20,0 C 76 % 1017,4 hPa 0,0 l/m 0 min 0 min 265 W/m 6,4 km/h (2 Bft) 97,87 %
20.08.2021 15:30 21,9 C 22,2 C 20,0 C 76 % 1017,4 hPa 0,0 l/m 0 min 0 min 251 W/m 6,4 km/h (2 Bft) 97,87 %
20.08.2021 15:32 21,9 C 22,2 C 20,0 C 75 % 1017,4 hPa 0,0 l/m 0 min 0 min 240 W/m 9,7 km/h (2 Bft) 97,92 %
20.08.2021 15:34 21,9 C 22,2 C 20,0 C 75 % 1017,4 hPa 0,0 l/m 0 min 0 min 234 W/m 9,7 km/h (2 Bft) 97,83 %
20.08.2021 15:36 21,9 C 22,2 C 20,0 C 75 % 1017,4 hPa 0,0 l/m 0 min 0 min 228 W/m 9,7 km/h (2 Bft) 97,87 %
20.08.2021 15:38 21,9 C 22,2 C 20,0 C 75 % 1017,4 hPa 0,0 l/m 0 min 0 min 226 W/m 6,4 km/h (2 Bft) 97,87 %
20.08.2021 15:40 21,9 C 21,7 C 19,5 C 74 % 1017,5 hPa 0,0 l/m 0 min 0 min 228 W/m 9,7 km/h (2 Bft) 91,49 %
20.08.2021 15:42 21,9 C 21,7 C 19,5 C 75 % 1017,4 hPa 0,0 l/m 0 min 0 min 232 W/m 6,4 km/h (2 Bft) 97,87 %
20.08.2021 15:44 21,9 C 21,7 C 19,5 C 74 % 1017,4 hPa 0,0 l/m 0 min 0 min 241 W/m 9,7 km/h (2 Bft) 80,85 %
20.08.2021 15:46 21,8 C 21,7 C 19,5 C 75 % 1017,4 hPa 0,0 l/m 0 min 0 min 250 W/m 16,1 km/h (3 Bft) 69,57 %
20.08.2021 15:48 21,8 C 21,7 C 19,5 C 75 % 1017,4 hPa 0,0 l/m 0 min 0 min 254 W/m 6,4 km/h (2 Bft) 78,72 %
20.08.2021 15:50 21,8 C 21,7 C 19,5 C 75 % 1017,3 hPa 0,0 l/m 0 min 0 min 257 W/m 9,7 km/h (2 Bft) 78,72 %
20.08.2021 15:52 21,8 C 21,7 C 19,5 C 75 % 1017,3 hPa 0,0 l/m 0 min 0 min 255 W/m 6,4 km/h (2 Bft) 70,21 %
20.08.2021 15:54 21,8 C 21,7 C 19,5 C 75 % 1017,3 hPa 0,0 l/m 0 min 0 min 256 W/m 12,9 km/h (3 Bft) 65,96 %
20.08.2021 15:56 21,8 C 21,7 C 19,5 C 75 % 1017,4 hPa 0,0 l/m 0 min 0 min 245 W/m 9,7 km/h (2 Bft) 72,34 %
20.08.2021 15:58 21,8 C 22,2 C 19,5 C 76 % 1017,3 hPa 0,0 l/m 0 min 0 min 259 W/m 12,9 km/h (3 Bft) 73,91 %
20.08.2021 16:00 21,8 C 22,2 C 19,5 C 76 % 1017,3 hPa 0,0 l/m 0 min 0 min 287 W/m 9,7 km/h (2 Bft) 73,91 %
20.08.2021 16:02 21,9 C 22,2 C 19,5 C 75 % 1017,3 hPa 0,0 l/m 0 min 0 min 313 W/m 6,4 km/h (2 Bft) 77,08 %
20.08.2021 16:04 21,9 C 22,2 C 19,5 C 75 % 1017,4 hPa 0,0 l/m 2 min 0 min 337 W/m 9,7 km/h (2 Bft) 85,11 %
20.08.2021 16:06 21,9 C 22,8 C 20,0 C 75 % 1017,3 hPa 0,0 l/m 2 min 0 min 335 W/m 6,4 km/h (2 Bft) 82,98 %
20.08.2021 16:08 21,9 C 22,2 C 19,5 C 75 % 1017,3 hPa 0,0 l/m 2 min 0 min 331 W/m 12,9 km/h (3 Bft) 93,62 %
20.08.2021 16:10 21,9 C 22,2 C 19,5 C 75 % 1017,4 hPa 0,0 l/m 2 min 0 min 335 W/m 9,7 km/h (2 Bft) 95,65 %
20.08.2021 16:12 21,9 C 22,2 C 19,5 C 75 % 1017,3 hPa 0,0 l/m 2 min 0 min 326 W/m 6,4 km/h (2 Bft) 95,74 %
20.08.2021 16:14 22,0 C 22,2 C 19,5 C 75 % 1017,4 hPa 0,0 l/m 0 min 0 min 308 W/m 6,4 km/h (2 Bft) 95,74 %
20.08.2021 16:16 22,0 C 22,2 C 19,5 C 74 % 1017,3 hPa 0,0 l/m 0 min 0 min 290 W/m 9,7 km/h (2 Bft) 93,62 %
20.08.2021 16:18 22,0 C 22,2 C 19,5 C 74 % 1017,4 hPa 0,0 l/m 0 min 0 min 275 W/m 12,9 km/h (3 Bft) 95,74 %
20.08.2021 16:20 22,0 C 22,2 C 20,0 C 75 % 1017,3 hPa 0,0 l/m 0 min 0 min 277 W/m 9,7 km/h (2 Bft) 95,74 %
20.08.2021 16:22 22,0 C 22,8 C 20,0 C 75 % 1017,3 hPa 0,0 l/m 0 min 0 min 303 W/m 6,4 km/h (2 Bft) 95,65 %
20.08.2021 16:24 22,1 C 22,8 C 20,0 C 74 % 1017,3 hPa 0,0 l/m 2 min 0 min 381 W/m 3,2 km/h (1 Bft) 97,87 %
20.08.2021 16:26 22,1 C 23,3 C 20,0 C 75 % 1017,3 hPa 0,0 l/m 2 min 0 min 394 W/m 12,9 km/h (3 Bft) 95,74 %
20.08.2021 16:28 22,2 C 24,4 C 20,0 C 75 % 1017,3 hPa 0,0 l/m 2 min 0 min 432 W/m 9,7 km/h (2 Bft) 95,74 %
20.08.2021 16:30 22,3 C 25,6 C 20,0 C 75 % 1017,3 hPa 0,0 l/m 2 min 0 min 433 W/m 9,7 km/h (2 Bft) 97,87 %
20.08.2021 16:32 22,4 C 26,7 C 20,0 C 74 % 1017,3 hPa 0,0 l/m 2 min 0 min 694 W/m 6,4 km/h (2 Bft) 93,48 %
20.08.2021 16:34 22,6 C 27,2 C 20,6 C 74 % 1017,3 hPa 0,0 l/m 2 min 0 min 783 W/m 12,9 km/h (3 Bft) 97,87 %
20.08.2021 16:36 22,6 C 26,1 C 20,6 C 73 % 1017,3 hPa 0,0 l/m 2 min 0 min 455 W/m 6,4 km/h (2 Bft) 95,74 %
20.08.2021 16:38 22,7 C 24,4 C 20,0 C 72 % 1017,3 hPa 0,0 l/m 0 min 0 min 226 W/m 6,4 km/h (2 Bft) 100,00 %
20.08.2021 16:40 22,7 C 23,9 C 20,0 C 72 % 1017,3 hPa 0,0 l/m 0 min 0 min 187 W/m 9,7 km/h (2 Bft) 97,87 %
20.08.2021 16:42 22,8 C 23,3 C 20,0 C 73 % 1017,3 hPa 0,0 l/m 0 min 0 min 207 W/m 6,4 km/h (2 Bft) 100,00 %
20.08.2021 16:44 22,7 C 23,3 C 20,0 C 72 % 1017,3 hPa 0,0 l/m 0 min 0 min 279 W/m 6,4 km/h (2 Bft) 100,00 %
20.08.2021 16:46 22,6 C 23,3 C 20,0 C 73 % 1017,3 hPa 0,0 l/m 2 min 0 min 295 W/m 6,4 km/h (2 Bft) 97,87 %
20.08.2021 16:48 22,6 C 23,9 C 20,0 C 73 % 1017,4 hPa 0,0 l/m 2 min 0 min 368 W/m 6,4 km/h (2 Bft) 97,87 %
20.08.2021 16:50 22,6 C 23,9 C 20,0 C 73 % 1017,3 hPa 0,0 l/m 2 min 0 min 423 W/m 9,7 km/h (2 Bft) 100,00 %
20.08.2021 16:52 22,7 C 23,3 C 20,0 C 73 % 1017,4 hPa 0,0 l/m 2 min 0 min 294 W/m 9,7 km/h (2 Bft) 100,00 %
20.08.2021 16:54 22,6 C 23,3 C 20,0 C 71 % 1017,4 hPa 0,0 l/m 2 min 0 min 278 W/m 16,1 km/h (3 Bft) 100,00 %
20.08.2021 16:56 22,6 C 23,9 C 20,0 C 71 % 1017,4 hPa 0,0 l/m 2 min 0 min 301 W/m 12,9 km/h (3 Bft) 100,00 %
20.08.2021 16:58 22,6 C 23,3 C 20,0 C 70 % 1017,4 hPa 0,0 l/m 0 min 0 min 242 W/m 9,7 km/h (2 Bft) 100,00 %
20.08.2021 17:00 22,6 C 23,3 C 20,0 C 71 % 1017,4 hPa 0,0 l/m 0 min 0 min 232 W/m 3,2 km/h (1 Bft) 100,00 %
20.08.2021 17:02 22,6 C 23,3 C 20,0 C 71 % 1017,4 hPa 0,0 l/m 0 min 0 min 230 W/m 6,4 km/h (2 Bft) 100,00 %
20.08.2021 17:04 22,6 C 23,3 C 20,0 C 70 % 1017,4 hPa 0,0 l/m 0 min 0 min 237 W/m 6,4 km/h (2 Bft) 100,00 %
20.08.2021 17:06 22,6 C 22,8 C 20,0 C 69 % 1017,4 hPa 0,0 l/m 0 min 0 min 258 W/m 9,7 km/h (2 Bft) 100,00 %
20.08.2021 17:08 22,5 C 22,8 C 20,0 C 69 % 1017,4 hPa 0,0 l/m 0 min 0 min 231 W/m 6,4 km/h (2 Bft) 97,83 %
20.08.2021 17:10 22,5 C 22,8 C 20,0 C 69 % 1017,4 hPa 0,0 l/m 0 min 0 min 223 W/m 9,7 km/h (2 Bft) 97,87 %
20.08.2021 17:12 22,5 C 22,8 C 19,5 C 69 % 1017,4 hPa 0,0 l/m 0 min 0 min 207 W/m 6,4 km/h (2 Bft) 100,00 %
20.08.2021 17:14 22,5 C 22,2 C 19,5 C 70 % 1017,4 hPa 0,0 l/m 0 min 0 min 203 W/m 6,4 km/h (2 Bft) 100,00 %
20.08.2021 17:16 22,5 C 22,8 C 19,5 C 70 % 1017,5 hPa 0,0 l/m 0 min 0 min 218 W/m 6,4 km/h (2 Bft) 100,00 %
20.08.2021 17:18 22,5 C 22,8 C 19,5 C 70 % 1017,4 hPa 0,0 l/m 0 min 0 min 238 W/m 6,4 km/h (2 Bft) 100,00 %
20.08.2021 17:20 22,4 C 22,8 C 19,5 C 71 % 1017,4 hPa 0,0 l/m 2 min 0 min 253 W/m 3,2 km/h (1 Bft) 97,87 %
20.08.2021 17:22 22,5 C 22,8 C 20,0 C 71 % 1017,4 hPa 0,0 l/m 2 min 0 min 278 W/m 3,2 km/h (1 Bft) 100,00 %
20.08.2021 17:24 22,5 C 25,0 C 20,0 C 71 % 1017,4 hPa 0,0 l/m 2 min 0 min 424 W/m 6,4 km/h (2 Bft) 100,00 %
20.08.2021 17:26 22,6 C 25,0 C 20,0 C 71 % 1017,4 hPa 0,0 l/m 2 min 0 min 606 W/m 9,7 km/h (2 Bft) 100,00 %
20.08.2021 17:28 22,6 C 25,0 C 20,0 C 71 % 1017,5 hPa 0,0 l/m 2 min 0 min 270 W/m 9,7 km/h (2 Bft) 100,00 %
20.08.2021 17:30 22,6 C 26,1 C 20,0 C 71 % 1017,5 hPa 0,0 l/m 2 min 0 min 332 W/m 12,9 km/h (3 Bft) 100,00 %
20.08.2021 17:32 22,8 C 27,2 C 20,6 C 72 % 1017,4 hPa 0,0 l/m 2 min 0 min 580 W/m 9,7 km/h (2 Bft) 100,00 %
20.08.2021 17:34 22,9 C 27,2 C 20,6 C 71 % 1017,4 hPa 0,0 l/m 2 min 0 min 599 W/m 6,4 km/h (2 Bft) 100,00 %
20.08.2021 17:36 23,0 C 26,7 C 20,6 C 70 % 1017,4 hPa 0,0 l/m 2 min 0 min 545 W/m 12,9 km/h (3 Bft) 100,00 %
20.08.2021 17:38 23,0 C 25,6 C 20,6 C 69 % 1017,4 hPa 0,0 l/m 2 min 0 min 362 W/m 9,7 km/h (2 Bft) 97,87 %
20.08.2021 17:40 23,0 C 24,4 C 20,0 C 70 % 1017,4 hPa 0,0 l/m 0 min 0 min 166 W/m 6,4 km/h (2 Bft) 100,00 %
20.08.2021 17:42 23,0 C 23,3 C 20,0 C 70 % 1017,4 hPa 0,0 l/m 0 min 0 min 167 W/m 6,4 km/h (2 Bft) 100,00 %
20.08.2021 17:44 23,0 C 23,3 C 20,0 C 71 % 1017,4 hPa 0,0 l/m 0 min 0 min 170 W/m 16,1 km/h (3 Bft) 100,00 %
20.08.2021 17:46 22,9 C 22,8 C 20,0 C 71 % 1017,4 hPa 0,0 l/m 0 min 0 min 163 W/m 6,4 km/h (2 Bft) 100,00 %
20.08.2021 17:48 22,9 C 22,8 C 19,5 C 71 % 1017,4 hPa 0,0 l/m 0 min 0 min 158 W/m 12,9 km/h (3 Bft) 100,00 %
20.08.2021 17:50 22,8 C 22,2 C 19,5 C 71 % 1017,4 hPa 0,0 l/m 0 min 0 min 156 W/m 9,7 km/h (2 Bft) 100,00 %
20.08.2021 17:52 22,8 C 22,2 C 19,5 C 72 % 1017,4 hPa 0,0 l/m 0 min 0 min 156 W/m 6,4 km/h (2 Bft) 97,87 %
20.08.2021 17:54 22,6 C 22,2 C 19,5 C 72 % 1017,5 hPa 0,0 l/m 0 min 0 min 156 W/m 6,4 km/h (2 Bft) 100,00 %
20.08.2021 17:56 22,6 C 21,7 C 19,5 C 72 % 1017,4 hPa 0,0 l/m 0 min 0 min 156 W/m 12,9 km/h (3 Bft) 100,00 %
20.08.2021 17:58 22,5 C 21,7 C 19,5 C 72 % 1017,5 hPa 0,0 l/m 0 min 0 min 161 W/m 6,4 km/h (2 Bft) 100,00 %
20.08.2021 18:00 22,5 C 21,7 C 19,5 C 72 % 1017,5 hPa 0,0 l/m 0 min 0 min 170 W/m 12,9 km/h (3 Bft) 95,74 %
20.08.2021 18:02 22,4 C 21,7 C 19,5 C 73 % 1017,4 hPa 0,0 l/m 0 min 0 min 189 W/m 12,9 km/h (3 Bft) 95,74 %
20.08.2021 18:04 22,4 C 21,7 C 19,5 C 73 % 1017,5 hPa 0,0 l/m 0 min 0 min 194 W/m 19,3 km/h (3 Bft) 97,87 %
20.08.2021 18:08 22,2 C 22,2 C 19,5 C 74 % 1017,5 hPa 0,0 l/m 4 min 0 min 204 W/m 9,7 km/h (2 Bft) 96,34 %
20.08.2021 18:10 22,2 C 23,3 C 19,5 C 74 % 1017,5 hPa 0,0 l/m 2 min 0 min 300 W/m 6,4 km/h (2 Bft) 98,08 %
20.08.2021 18:12 22,2 C 24,4 C 19,5 C 74 % 1017,5 hPa 0,0 l/m 2 min 0 min 346 W/m 12,9 km/h (3 Bft) 97,87 %
20.08.2021 18:14 22,3 C 25,6 C 20,0 C 74 % 1017,5 hPa 0,0 l/m 2 min 0 min 460 W/m 6,4 km/h (2 Bft) 97,87 %
20.08.2021 18:16 22,3 C 25,6 C 20,0 C 74 % 1017,5 hPa 0,0 l/m 2 min 0 min 408 W/m 9,7 km/h (2 Bft) 95,12 %
20.08.2021 18:18 22,3 C 23,9 C 20,0 C 74 % 1017,6 hPa 0,0 l/m 0 min 0 min 169 W/m 9,7 km/h (2 Bft) 98,08 %
20.08.2021 18:20 22,3 C 23,3 C 19,5 C 74 % 1017,5 hPa 0,0 l/m 0 min 0 min 137 W/m 12,9 km/h (3 Bft) 95,74 %
20.08.2021 18:22 22,3 C 22,8 C 19,5 C 74 % 1017,5 hPa 0,0 l/m 0 min 0 min 119 W/m 6,4 km/h (2 Bft) 95,74 %
20.08.2021 18:24 22,3 C 22,2 C 19,5 C 74 % 1017,4 hPa 0,0 l/m 0 min 0 min 97 W/m 9,7 km/h (2 Bft) 93,62 %
20.08.2021 18:26 22,3 C 21,7 C 19,5 C 74 % 1017,5 hPa 0,0 l/m 0 min 0 min 81 W/m 6,4 km/h (2 Bft) 93,62 %
20.08.2021 18:28 22,1 C 21,7 C 18,9 C 74 % 1017,5 hPa 0,0 l/m 0 min 0 min 72 W/m 6,4 km/h (2 Bft) 91,49 %
20.08.2021 18:30 22,0 C 21,1 C 18,9 C 74 % 1017,5 hPa 0,0 l/m 0 min 0 min 69 W/m 12,9 km/h (3 Bft) 93,62 %
20.08.2021 18:32 22,0 C 21,1 C 18,9 C 74 % 1017,5 hPa 0,0 l/m 0 min 0 min 62 W/m 3,2 km/h (1 Bft) 93,62 %
20.08.2021 18:34 21,9 C 21,1 C 18,9 C 75 % 1017,5 hPa 0,0 l/m 0 min 0 min 62 W/m 6,4 km/h (2 Bft) 93,62 %
20.08.2021 18:36 21,8 C 20,6 C 18,4 C 75 % 1017,5 hPa 0,0 l/m 0 min 0 min 62 W/m 6,4 km/h (2 Bft) 93,62 %
20.08.2021 18:38 21,8 C 20,6 C 18,4 C 76 % 1017,5 hPa 0,0 l/m 0 min 0 min 60 W/m 3,2 km/h (1 Bft) 95,74 %
20.08.2021 18:40 21,8 C 20,6 C 18,4 C 76 % 1017,5 hPa 0,0 l/m 0 min 0 min 61 W/m 3,2 km/h (1 Bft) 93,62 %
20.08.2021 18:42 21,7 C 20,6 C 18,4 C 76 % 1017,5 hPa 0,0 l/m 0 min 0 min 64 W/m 3,2 km/h (1 Bft) 95,65 %
20.08.2021 18:44 21,6 C 20,6 C 18,4 C 76 % 1017,5 hPa 0,0 l/m 0 min 0 min 68 W/m 3,2 km/h (1 Bft) 97,87 %
20.08.2021 18:46 21,6 C 20,6 C 18,4 C 77 % 1017,5 hPa 0,0 l/m 0 min 0 min 72 W/m 3,2 km/h (1 Bft) 95,74 %
20.08.2021 18:48 21,5 C 20,6 C 18,4 C 77 % 1017,5 hPa 0,0 l/m 0 min 0 min 75 W/m 3,2 km/h (1 Bft) 95,74 %
20.08.2021 18:50 21,5 C 20,6 C 18,4 C 77 % 1017,5 hPa 0,0 l/m 0 min 0 min 82 W/m 6,4 km/h (2 Bft) 95,74 %
20.08.2021 18:52 21,5 C 20,6 C 18,4 C 77 % 1017,5 hPa 0,0 l/m 0 min 0 min 88 W/m 3,2 km/h (1 Bft) 93,62 %
20.08.2021 18:54 21,4 C 20,6 C 18,4 C 78 % 1017,5 hPa 0,0 l/m 0 min 0 min 94 W/m 0,0 km/h (0 Bft) 95,65 %
20.08.2021 18:56 21,4 C 20,6 C 18,4 C 78 % 1017,5 hPa 0,0 l/m 0 min 0 min 98 W/m 3,2 km/h (1 Bft) 95,74 %
20.08.2021 18:58 21,4 C 20,6 C 18,4 C 78 % 1017,5 hPa 0,0 l/m 0 min 0 min 98 W/m 3,2 km/h (1 Bft) 91,49 %
20.08.2021 19:00 21,4 C 20,6 C 18,4 C 78 % 1017,5 hPa 0,0 l/m 0 min 0 min 100 W/m 3,2 km/h (1 Bft) 93,62 %
20.08.2021 19:02 21,4 C 20,6 C 18,4 C 78 % 1017,5 hPa 0,0 l/m 0 min 0 min 97 W/m 6,4 km/h (2 Bft) 95,83 %
20.08.2021 19:04 21,4 C 20,6 C 18,4 C 78 % 1017,5 hPa 0,0 l/m 0 min 0 min 90 W/m 3,2 km/h (1 Bft) 95,65 %
20.08.2021 19:06 21,4 C 21,1 C 18,4 C 78 % 1017,5 hPa 0,0 l/m 0 min 0 min 87 W/m 0,0 km/h (0 Bft) 95,74 %
20.08.2021 19:08 21,4 C 21,1 C 18,4 C 78 % 1017,5 hPa 0,0 l/m 0 min 0 min 84 W/m 0,0 km/h (0 Bft) 97,87 %
20.08.2021 19:10 21,4 C 20,6 C 18,4 C 78 % 1017,5 hPa 0,0 l/m 0 min 0 min 81 W/m 9,7 km/h (2 Bft) 95,74 %
20.08.2021 19:12 21,4 C 21,1 C 18,4 C 78 % 1017,5 hPa 0,0 l/m 0 min 0 min 78 W/m 6,4 km/h (2 Bft) 97,87 %
20.08.2021 19:14 21,3 C 20,6 C 18,4 C 78 % 1017,5 hPa 0,0 l/m 0 min 0 min 76 W/m 6,4 km/h (2 Bft) 97,87 %
20.08.2021 19:16 21,3 C 20,6 C 18,4 C 78 % 1017,5 hPa 0,0 l/m 0 min 0 min 74 W/m 3,2 km/h (1 Bft) 100,00 %
20.08.2021 19:18 21,3 C 20,6 C 18,4 C 78 % 1017,6 hPa 0,0 l/m 0 min 0 min 72 W/m 3,2 km/h (1 Bft) 97,87 %
20.08.2021 19:20 21,3 C 20,6 C 18,4 C 78 % 1017,5 hPa 0,0 l/m 0 min 0 min 70 W/m 3,2 km/h (1 Bft) 100,00 %
20.08.2021 19:22 21,3 C 20,6 C 18,4 C 78 % 1017,6 hPa 0,0 l/m 0 min 0 min 69 W/m 3,2 km/h (1 Bft) 100,00 %
20.08.2021 19:24 21,3 C 20,6 C 18,4 C 79 % 1017,6 hPa 0,0 l/m 0 min 0 min 69 W/m 3,2 km/h (1 Bft) 100,00 %
20.08.2021 19:26 21,3 C 20,6 C 18,4 C 79 % 1017,6 hPa 0,0 l/m 0 min 0 min 68 W/m 3,2 km/h (1 Bft) 97,87 %
20.08.2021 19:28 21,3 C 20,6 C 18,4 C 79 % 1017,6 hPa 0,0 l/m 0 min 0 min 65 W/m 9,7 km/h (2 Bft) 100,00 %
20.08.2021 19:30 21,3 C 20,6 C 18,4 C 78 % 1017,6 hPa 0,0 l/m 0 min 0 min 65 W/m 6,4 km/h (2 Bft) 100,00 %
20.08.2021 19:32 21,2 C 20,6 C 18,4 C 78 % 1017,6 hPa 0,0 l/m 0 min 0 min 64 W/m 3,2 km/h (1 Bft) 97,87 %
20.08.2021 19:34 21,2 C 20,6 C 18,4 C 78 % 1017,6 hPa 0,0 l/m 0 min 0 min 61 W/m 3,2 km/h (1 Bft) 100,00 %
20.08.2021 19:36 21,2 C 20,6 C 18,4 C 78 % 1017,6 hPa 0,0 l/m 0 min 0 min 57 W/m 3,2 km/h (1 Bft) 97,87 %
20.08.2021 19:38 21,1 C 20,6 C 18,4 C 78 % 1017,6 hPa 0,0 l/m 0 min 0 min 53 W/m 3,2 km/h (1 Bft) 100,00 %
20.08.2021 19:40 21,1 C 20,6 C 18,4 C 79 % 1017,6 hPa 0,0 l/m 0 min 0 min 51 W/m 0,0 km/h (0 Bft) 100,00 %
20.08.2021 19:42 21,1 C 20,6 C 18,4 C 79 % 1017,6 hPa 0,0 l/m 0 min 0 min 48 W/m 3,2 km/h (1 Bft) 100,00 %
20.08.2021 19:44 21,1 C 20,0 C 18,4 C 79 % 1017,6 hPa 0,0 l/m 0 min 0 min 45 W/m 3,2 km/h (1 Bft) 100,00 %
20.08.2021 19:46 21,1 C 20,0 C 17,8 C 79 % 1017,6 hPa 0,0 l/m 0 min 0 min 43 W/m 6,4 km/h (2 Bft) 93,62 %
20.08.2021 19:48 21,1 C 20,0 C 17,8 C 79 % 1017,6 hPa 0,0 l/m 0 min 0 min 40 W/m 3,2 km/h (1 Bft) 97,87 %
20.08.2021 19:50 21,0 C 20,0 C 17,8 C 79 % 1017,6 hPa 0,0 l/m 0 min 0 min 38 W/m 3,2 km/h (1 Bft) 100,00 %
20.08.2021 19:52 21,0 C 20,0 C 17,8 C 79 % 1017,6 hPa 0,0 l/m 0 min 0 min 35 W/m 3,2 km/h (1 Bft) 100,00 %
20.08.2021 19:54 21,0 C 20,0 C 17,8 C 79 % 1017,6 hPa 0,0 l/m 0 min 0 min 34 W/m 3,2 km/h (1 Bft) 97,87 %
20.08.2021 19:56 21,0 C 20,0 C 17,8 C 79 % 1017,6 hPa 0,0 l/m 0 min 0 min 33 W/m 6,4 km/h (2 Bft) 100,00 %
20.08.2021 19:58 21,0 C 20,0 C 17,8 C 79 % 1017,7 hPa 0,0 l/m 0 min 0 min 33 W/m 0,0 km/h (0 Bft) 100,00 %
20.08.2021 20:00 21,0 C 20,0 C 17,8 C 80 % 1017,6 hPa 0,0 l/m 0 min 0 min 32 W/m 3,2 km/h (1 Bft) 97,87 %
20.08.2021 20:02 21,0 C 20,0 C 17,8 C 80 % 1017,6 hPa 0,0 l/m 0 min 0 min 31 W/m 3,2 km/h (1 Bft) 100,00 %
20.08.2021 20:04 20,9 C 20,0 C 17,8 C 80 % 1017,6 hPa 0,0 l/m 0 min 0 min 30 W/m 0,0 km/h (0 Bft) 97,83 %
20.08.2021 20:06 20,9 C 20,0 C 17,8 C 80 % 1017,6 hPa 0,0 l/m 0 min 0 min 29 W/m 3,2 km/h (1 Bft) 97,87 %
20.08.2021 20:08 20,9 C 20,0 C 17,8 C 80 % 1017,6 hPa 0,0 l/m 0 min 0 min 27 W/m 0,0 km/h (0 Bft) 97,87 %
20.08.2021 20:10 20,9 C 20,0 C 17,8 C 80 % 1017,6 hPa 0,0 l/m 0 min 0 min 26 W/m 0,0 km/h (0 Bft) 97,87 %
20.08.2021 20:12 20,8 C 20,0 C 17,8 C 80 % 1017,7 hPa 0,0 l/m 0 min 0 min 26 W/m 0,0 km/h (0 Bft) 97,87 %
20.08.2021 20:14 20,8 C 20,0 C 17,8 C 80 % 1017,6 hPa 0,0 l/m 0 min 0 min 25 W/m 0,0 km/h (0 Bft) 97,83 %
20.08.2021 20:16 20,8 C 20,0 C 17,8 C 80 % 1017,7 hPa 0,0 l/m 0 min 0 min 24 W/m 0,0 km/h (0 Bft) 97,87 %
20.08.2021 20:18 20,8 C 19,4 C 17,8 C 80 % 1017,6 hPa 0,0 l/m 0 min 0 min 23 W/m 0,0 km/h (0 Bft) 97,87 %
20.08.2021 20:20 20,8 C 19,4 C 17,8 C 80 % 1017,7 hPa 0,0 l/m 0 min 0 min 21 W/m 0,0 km/h (0 Bft) 97,87 %
20.08.2021 20:22 20,8 C 19,4 C 17,3 C 81 % 1017,7 hPa 0,0 l/m 0 min 0 min 19 W/m 0,0 km/h (0 Bft) 97,87 %
20.08.2021 20:24 20,8 C 19,4 C 17,3 C 81 % 1017,7 hPa 0,0 l/m 0 min 0 min 19 W/m 0,0 km/h (0 Bft) 97,87 %
20.08.2021 20:26 20,8 C 19,4 C 17,3 C 81 % 1017,7 hPa 0,0 l/m 0 min 0 min 18 W/m 0,0 km/h (0 Bft) 97,83 %
20.08.2021 20:28 20,7 C 19,4 C 17,3 C 82 % 1017,7 hPa 0,0 l/m 0 min 0 min 16 W/m 0,0 km/h (0 Bft) 97,87 %
20.08.2021 20:30 20,6 C 19,4 C 17,3 C 82 % 1017,8 hPa 0,0 l/m 0 min 0 min 15 W/m 0,0 km/h (0 Bft) 97,87 %
20.08.2021 20:32 20,6 C 18,9 C 17,3 C 82 % 1017,8 hPa 0,0 l/m 0 min 0 min 13 W/m 0,0 km/h (0 Bft) 95,74 %
20.08.2021 20:34 20,6 C 18,9 C 17,3 C 82 % 1017,8 hPa 0,0 l/m 0 min 0 min 12 W/m 0,0 km/h (0 Bft) 97,87 %
20.08.2021 20:36 20,5 C 18,9 C 17,3 C 82 % 1017,8 hPa 0,0 l/m 0 min 0 min 11 W/m 0,0 km/h (0 Bft) 100,00 %
20.08.2021 20:38 20,5 C 18,9 C 17,3 C 82 % 1017,8 hPa 0,0 l/m 0 min 0 min 9 W/m 0,0 km/h (0 Bft) 97,83 %
20.08.2021 20:40 20,4 C 18,9 C 16,7 C 82 % 1017,8 hPa 0,0 l/m 0 min 0 min 7 W/m 0,0 km/h (0 Bft) 100,00 %
20.08.2021 20:42 20,4 C 18,9 C 16,7 C 82 % 1017,8 hPa 0,0 l/m 0 min 0 min 7 W/m 0,0 km/h (0 Bft) 100,00 %
20.08.2021 20:44 20,3 C 18,9 C 16,7 C 82 % 1017,8 hPa 0,0 l/m 0 min 0 min 5 W/m 0,0 km/h (0 Bft) 100,00 %
20.08.2021 20:46 20,3 C 18,9 C 16,7 C 82 % 1017,8 hPa 0,0 l/m 0 min 0 min 2 W/m 0,0 km/h (0 Bft) 100,00 %
20.08.2021 20:48 20,3 C 18,9 C 16,7 C 82 % 1017,8 hPa 0,0 l/m 0 min 0 min 0 W/m 0,0 km/h (0 Bft) 100,00 %
20.08.2021 20:50 20,3 C 18,3 C 16,7 C 83 % 1017,9 hPa 0,0 l/m 0 min 0 min 0 W/m 0,0 km/h (0 Bft) 100,00 %
20.08.2021 20:52 20,2 C 18,3 C 16,7 C 83 % 1017,9 hPa 0,0 l/m 0 min 0 min 0 W/m 0,0 km/h (0 Bft) 100,00 %
20.08.2021 20:54 20,1 C 18,3 C 16,1 C 83 % 1017,9 hPa 0,0 l/m 0 min 0 min 0 W/m 0,0 km/h (0 Bft) 100,00 %
20.08.2021 20:56 20,1 C 18,3 C 16,1 C 84 % 1018,0 hPa 0,0 l/m 0 min 0 min 0 W/m 0,0 km/h (0 Bft) 100,00 %
20.08.2021 20:58 20,1 C 17,8 C 16,1 C 83 % 1018,0 hPa 0,0 l/m 0 min 0 min 0 W/m 0,0 km/h (0 Bft) 97,87 %
20.08.2021 21:00 20,0 C 17,8 C 16,1 C 84 % 1018,0 hPa 0,0 l/m 0 min 0 min 0 W/m 0,0 km/h (0 Bft) 100,00 %
20.08.2021 21:02 19,9 C 17,8 C 16,1 C 84 % 1018,0 hPa 0,0 l/m 0 min 0 min 0 W/m 0,0 km/h (0 Bft) 100,00 %
20.08.2021 21:04 19,9 C 17,8 C 16,1 C 84 % 1018,0 hPa 0,0 l/m 0 min 0 min 0 W/m 0,0 km/h (0 Bft) 100,00 %
20.08.2021 21:06 19,8 C 17,8 C 16,1 C 84 % 1018,1 hPa 0,0 l/m 0 min 0 min 0 W/m 0,0 km/h (0 Bft) 97,87 %
20.08.2021 21:08 19,7 C 17,8 C 15,6 C 84 % 1018,2 hPa 0,0 l/m 0 min 0 min 0 W/m 0,0 km/h (0 Bft) 97,87 %
20.08.2021 21:10 19,6 C 17,8 C 15,6 C 84 % 1018,1 hPa 0,0 l/m 0 min 0 min 0 W/m 0,0 km/h (0 Bft) 93,62 %
20.08.2021 21:12 19,6 C 17,2 C 15,6 C 84 % 1018,1 hPa 0,0 l/m 0 min 0 min 0 W/m 0,0 km/h (0 Bft) 97,83 %
20.08.2021 21:14 19,5 C 17,2 C 15,6 C 84 % 1018,2 hPa 0,0 l/m 0 min 0 min 0 W/m 0,0 km/h (0 Bft) 97,87 %
20.08.2021 21:16 19,4 C 17,2 C 15,6 C 84 % 1018,2 hPa 0,0 l/m 0 min 0 min 0 W/m 0,0 km/h (0 Bft) 97,87 %
20.08.2021 21:18 19,4 C 17,2 C 15,6 C 85 % 1018,3 hPa 0,0 l/m 0 min 0 min 0 W/m 0,0 km/h (0 Bft) 97,87 %
20.08.2021 21:20 19,4 C 17,2 C 15,6 C 85 % 1018,3 hPa 0,0 l/m 0 min 0 min 0 W/m 0,0 km/h (0 Bft) 95,74 %
20.08.2021 21:22 19,3 C 17,2 C 15,6 C 85 % 1018,3 hPa 0,0 l/m 0 min 0 min 0 W/m 0,0 km/h (0 Bft) 95,74 %
20.08.2021 21:24 19,2 C 17,2 C 15,6 C 85 % 1018,3 hPa 0,0 l/m 0 min 0 min 0 W/m 0,0 km/h (0 Bft) 95,65 %
20.08.2021 21:26 19,2 C 17,2 C 15,6 C 85 % 1018,3 hPa 0,0 l/m 0 min 0 min 0 W/m 0,0 km/h (0 Bft) 95,74 %
20.08.2021 21:28 19,1 C 17,2 C 15,6 C 85 % 1018,3 hPa 0,0 l/m 0 min 0 min 0 W/m 0,0 km/h (0 Bft) 93,62 %
20.08.2021 21:30 19,1 C 16,7 C 15,6 C 85 % 1018,3 hPa 0,0 l/m 0 min 0 min 0 W/m 0,0 km/h (0 Bft) 95,74 %
20.08.2021 21:32 19,0 C 16,7 C 15,6 C 86 % 1018,3 hPa 0,0 l/m 0 min 0 min 0 W/m 0,0 km/h (0 Bft) 93,62 %
20.08.2021 21:34 19,0 C 16,7 C 15,6 C 86 % 1018,3 hPa 0,0 l/m 0 min 0 min 0 W/m 0,0 km/h (0 Bft) 95,74 %
20.08.2021 21:36 18,9 C 16,7 C 15,0 C 86 % 1018,4 hPa 0,0 l/m 0 min 0 min 0 W/m 0,0 km/h (0 Bft) 95,65 %
20.08.2021 21:38 18,9 C 16,7 C 15,0 C 86 % 1018,4 hPa 0,0 l/m 0 min 0 min 0 W/m 0,0 km/h (0 Bft) 95,74 %
20.08.2021 21:40 18,8 C 16,7 C 15,0 C 86 % 1018,4 hPa 0,0 l/m 0 min 0 min 0 W/m 0,0 km/h (0 Bft) 95,74 %
20.08.2021 21:42 18,8 C 16,7 C 15,0 C 86 % 1018,4 hPa 0,0 l/m 0 min 0 min 0 W/m 0,0 km/h (0 Bft) 93,62 %
20.08.2021 21:44 18,7 C 16,7 C 15,0 C 86 % 1018,4 hPa 0,0 l/m 0 min 0 min 0 W/m 0,0 km/h (0 Bft) 93,62 %
20.08.2021 21:46 18,6 C 16,7 C 15,0 C 87 % 1018,4 hPa 0,0 l/m 0 min 0 min 0 W/m 0,0 km/h (0 Bft) 95,65 %
20.08.2021 21:48 18,6 C 16,1 C 15,0 C 87 % 1018,4 hPa 0,0 l/m 0 min 0 min 0 W/m 0,0 km/h (0 Bft) 93,62 %
20.08.2021 21:50 18,5 C 16,1 C 15,0 C 87 % 1018,5 hPa 0,0 l/m 0 min 0 min 0 W/m 0,0 km/h (0 Bft) 95,74 %
20.08.2021 21:52 18,4 C 16,1 C 15,0 C 87 % 1018,5 hPa 0,0 l/m 0 min 0 min 0 W/m 0,0 km/h (0 Bft) 95,74 %
20.08.2021 21:54 18,4 C 16,1 C 15,0 C 87 % 1018,5 hPa 0,0 l/m 0 min 0 min 0 W/m 0,0 km/h (0 Bft) 95,74 %
20.08.2021 21:56 18,3 C 16,1 C 15,0 C 87 % 1018,5 hPa 0,0 l/m 0 min 0 min 0 W/m 0,0 km/h (0 Bft) 93,62 %
20.08.2021 21:58 18,3 C 16,1 C 15,0 C 88 % 1018,5 hPa 0,0 l/m 0 min 0 min 0 W/m 0,0 km/h (0 Bft) 93,48 %
20.08.2021 22:00 18,2 C 16,1 C 15,0 C 88 % 1018,5 hPa 0,0 l/m 0 min 0 min 0 W/m 0,0 km/h (0 Bft) 93,62 %
20.08.2021 22:02 18,1 C 16,1 C 15,0 C 88 % 1018,5 hPa 0,0 l/m 0 min 0 min 0 W/m 0,0 km/h (0 Bft) 93,62 %
20.08.2021 22:04 18,1 C 16,1 C 15,0 C 88 % 1018,5 hPa 0,0 l/m 0 min 0 min 0 W/m 0,0 km/h (0 Bft) 95,74 %
20.08.2021 22:06 18,0 C 16,1 C 14,5 C 88 % 1018,5 hPa 0,0 l/m 0 min 0 min 0 W/m 0,0 km/h (0 Bft) 97,87 %
20.08.2021 22:08 18,0 C 16,1 C 14,5 C 88 % 1018,6 hPa 0,0 l/m 0 min 0 min 0 W/m 0,0 km/h (0 Bft) 95,74 %
20.08.2021 22:10 17,9 C 16,1 C 14,5 C 88 % 1018,6 hPa 0,0 l/m 0 min 0 min 0 W/m 0,0 km/h (0 Bft) 97,83 %
20.08.2021 22:12 17,9 C 15,6 C 14,5 C 89 % 1018,6 hPa 0,0 l/m 0 min 0 min 0 W/m 0,0 km/h (0 Bft) 97,87 %
20.08.2021 22:14 17,9 C 15,6 C 14,5 C 89 % 1018,6 hPa 0,0 l/m 0 min 0 min 0 W/m 0,0 km/h (0 Bft) 97,87 %
20.08.2021 22:16 17,8 C 15,6 C 14,5 C 89 % 1018,6 hPa 0,0 l/m 0 min 0 min 0 W/m 0,0 km/h (0 Bft) 95,74 %
20.08.2021 22:18 17,8 C 15,6 C 14,5 C 89 % 1018,6 hPa 0,0 l/m 0 min 0 min 0 W/m 0,0 km/h (0 Bft) 97,87 %
20.08.2021 22:20 17,7 C 15,6 C 14,5 C 89 % 1018,6 hPa 0,0 l/m 0 min 0 min 0 W/m 0,0 km/h (0 Bft) 97,87 %
20.08.2021 22:22 17,6 C 15,6 C 14,5 C 89 % 1018,6 hPa 0,0 l/m 0 min 0 min 0 W/m 0,0 km/h (0 Bft) 97,83 %
20.08.2021 22:24 17,6 C 15,6 C 14,5 C 89 % 1018,6 hPa 0,0 l/m 0 min 0 min 0 W/m 0,0 km/h (0 Bft) 97,87 %
20.08.2021 22:26 17,6 C 15,6 C 14,5 C 89 % 1018,6 hPa 0,0 l/m 0 min 0 min 0 W/m 0,0 km/h (0 Bft) 97,87 %
20.08.2021 22:28 17,5 C 15,6 C 14,5 C 90 % 1018,6 hPa 0,0 l/m 0 min 0 min 0 W/m 0,0 km/h (0 Bft) 100,00 %
20.08.2021 22:30 17,5 C 15,6 C 14,5 C 90 % 1018,7 hPa 0,0 l/m 0 min 0 min 0 W/m 0,0 km/h (0 Bft) 97,87 %
20.08.2021 22:32 17,4 C 15,6 C 14,5 C 90 % 1018,6 hPa 0,0 l/m 0 min 0 min 0 W/m 0,0 km/h (0 Bft) 97,14 %
20.08.2021 22:34 17,4 C 15,6 C 14,5 C 90 % 1018,6 hPa 0,0 l/m 0 min 0 min 0 W/m 0,0 km/h (0 Bft) 100,00 %
20.08.2021 22:36 17,3 C 15,6 C 14,5 C 90 % 1018,6 hPa 0,0 l/m 0 min 0 min 0 W/m 0,0 km/h (0 Bft) 97,83 %
20.08.2021 22:38 17,3 C 15,6 C 14,5 C 90 % 1018,7 hPa 0,0 l/m 0 min 0 min 0 W/m 0,0 km/h (0 Bft) 100,00 %
20.08.2021 22:40 17,3 C 15,6 C 14,5 C 90 % 1018,7 hPa 0,0 l/m 0 min 0 min 0 W/m 0,0 km/h (0 Bft) 100,00 %
20.08.2021 22:42 17,2 C 15,6 C 14,5 C 90 % 1018,7 hPa 0,0 l/m 0 min 0 min 0 W/m 0,0 km/h (0 Bft) 97,87 %
20.08.2021 22:44 17,1 C 15,6 C 14,5 C 90 % 1018,7 hPa 0,0 l/m 0 min 0 min 0 W/m 0,0 km/h (0 Bft) 100,00 %
20.08.2021 22:46 17,1 C 15,6 C 14,5 C 90 % 1018,7 hPa 0,0 l/m 0 min 0 min 0 W/m 0,0 km/h (0 Bft) 100,00 %
20.08.2021 22:48 17,1 C 15,6 C 14,5 C 90 % 1018,7 hPa 0,0 l/m 0 min 0 min 0 W/m 0,0 km/h (0 Bft) 100,00 %
20.08.2021 22:50 17,0 C 15,6 C 14,5 C 91 % 1018,7 hPa 0,0 l/m 0 min 0 min 0 W/m 0,0 km/h (0 Bft) 100,00 %
20.08.2021 22:52 17,0 C 15,6 C 14,5 C 91 % 1018,7 hPa 0,0 l/m 0 min 0 min 0 W/m 0,0 km/h (0 Bft) 100,00 %
20.08.2021 22:54 17,0 C 15,6 C 14,5 C 91 % 1018,7 hPa 0,0 l/m 0 min 0 min 0 W/m 0,0 km/h (0 Bft) 100,00 %
20.08.2021 22:56 17,0 C 15,6 C 14,5 C 91 % 1018,7 hPa 0,0 l/m 0 min 0 min 0 W/m 0,0 km/h (0 Bft) 100,00 %
20.08.2021 22:58 16,9 C 15,0 C 14,5 C 91 % 1018,8 hPa 0,0 l/m 0 min 0 min 0 W/m 0,0 km/h (0 Bft) 100,00 %
20.08.2021 23:00 16,9 C 15,0 C 14,5 C 91 % 1018,7 hPa 0,0 l/m 0 min 0 min 0 W/m 0,0 km/h (0 Bft) 100,00 %
20.08.2021 23:02 16,9 C 15,0 C 14,5 C 91 % 1018,8 hPa 0,0 l/m 0 min 0 min 0 W/m 0,0 km/h (0 Bft) 100,00 %
20.08.2021 23:04 16,8 C 15,0 C 14,5 C 91 % 1018,9 hPa 0,0 l/m 0 min 0 min 0 W/m 0,0 km/h (0 Bft) 97,87 %
20.08.2021 23:06 16,8 C 15,0 C 14,5 C 91 % 1018,9 hPa 0,0 l/m 0 min 0 min 0 W/m 0,0 km/h (0 Bft) 100,00 %
20.08.2021 23:08 16,8 C 15,0 C 14,5 C 91 % 1018,8 hPa 0,0 l/m 0 min 0 min 0 W/m 0,0 km/h (0 Bft) 100,00 %
20.08.2021 23:10 16,7 C 15,0 C 14,5 C 91 % 1018,9 hPa 0,0 l/m 0 min 0 min 0 W/m 0,0 km/h (0 Bft) 100,00 %
20.08.2021 23:12 16,7 C 15,0 C 13,9 C 91 % 1018,8 hPa 0,0 l/m 0 min 0 min 0 W/m 0,0 km/h (0 Bft) 98,08 %
20.08.2021 23:14 16,6 C 15,0 C 13,9 C 92 % 1018,8 hPa 0,0 l/m 0 min 0 min 0 W/m 0,0 km/h (0 Bft) 100,00 %
20.08.2021 23:16 16,6 C 15,0 C 13,9 C 92 % 1018,9 hPa 0,0 l/m 0 min 0 min 0 W/m 0,0 km/h (0 Bft) 100,00 %
20.08.2021 23:18 16,6 C 15,0 C 13,9 C 92 % 1018,8 hPa 0,0 l/m 0 min 0 min 0 W/m 0,0 km/h (0 Bft) 100,00 %
20.08.2021 23:20 16,5 C 15,0 C 13,9 C 92 % 1018,8 hPa 0,0 l/m 0 min 0 min 0 W/m 0,0 km/h (0 Bft) 100,00 %
20.08.2021 23:22 16,5 C 15,0 C 13,9 C 92 % 1018,9 hPa 0,0 l/m 0 min 0 min 0 W/m 0,0 km/h (0 Bft) 100,00 %
20.08.2021 23:24 16,5 C 15,0 C 13,9 C 92 % 1018,8 hPa 0,0 l/m 0 min 0 min 0 W/m 0,0 km/h (0 Bft) 100,00 %
20.08.2021 23:26 16,5 C 15,0 C 13,9 C 92 % 1018,9 hPa 0,0 l/m 0 min 0 min 0 W/m 0,0 km/h (0 Bft) 97,87 %
20.08.2021 23:28 16,4 C 15,0 C 13,9 C 92 % 1018,9 hPa 0,0 l/m 0 min 0 min 0 W/m 0,0 km/h (0 Bft) 100,00 %
20.08.2021 23:30 16,4 C 15,0 C 13,9 C 92 % 1018,9 hPa 0,0 l/m 0 min 0 min 0 W/m 0,0 km/h (0 Bft) 100,00 %
20.08.2021 23:32 16,4 C 15,0 C 13,9 C 92 % 1018,9 hPa 0,0 l/m 0 min 0 min 0 W/m 0,0 km/h (0 Bft) 100,00 %
20.08.2021 23:34 16,3 C 15,0 C 13,9 C 92 % 1018,8 hPa 0,0 l/m 0 min 0 min 0 W/m 0,0 km/h (0 Bft) 100,00 %
20.08.2021 23:36 16,3 C 15,0 C 13,9 C 92 % 1018,8 hPa 0,0 l/m 0 min 0 min 0 W/m 0,0 km/h (0 Bft) 100,00 %
20.08.2021 23:38 16,3 C 15,0 C 13,9 C 92 % 1018,8 hPa 0,0 l/m 0 min 0 min 0 W/m 0,0 km/h (0 Bft) 97,87 %
20.08.2021 23:40 16,3 C 15,0 C 13,9 C 92 % 1018,8 hPa 0,0 l/m 0 min 0 min 0 W/m 0,0 km/h (0 Bft) 97,92 %
20.08.2021 23:42 16,2 C 15,0 C 13,9 C 92 % 1018,8 hPa 0,0 l/m 0 min 0 min 0 W/m 0,0 km/h (0 Bft) 97,87 %
20.08.2021 23:44 16,2 C 15,0 C 13,9 C 92 % 1018,8 hPa 0,0 l/m 0 min 0 min 0 W/m 0,0 km/h (0 Bft) 97,83 %
20.08.2021 23:46 16,1 C 15,0 C 13,9 C 92 % 1018,8 hPa 0,0 l/m 0 min 0 min 0 W/m 0,0 km/h (0 Bft) 97,87 %
20.08.2021 23:48 16,1 C 14,4 C 13,9 C 92 % 1018,8 hPa 0,0 l/m 0 min 0 min 0 W/m 0,0 km/h (0 Bft) 95,74 %
20.08.2021 23:50 16,1 C 14,4 C 13,9 C 92 % 1018,7 hPa 0,0 l/m 0 min 0 min 0 W/m 0,0 km/h (0 Bft) 95,74 %
20.08.2021 23:52 16,1 C 14,4 C 13,9 C 92 % 1018,8 hPa 0,0 l/m 0 min 0 min 0 W/m 0,0 km/h (0 Bft) 95,74 %
20.08.2021 23:54 16,0 C 14,4 C 13,9 C 93 % 1018,8 hPa 0,0 l/m 0 min 0 min 0 W/m 0,0 km/h (0 Bft) 95,74 %
20.08.2021 23:56 16,0 C 14,4 C 13,9 C 93 % 1018,8 hPa 0,0 l/m 0 min 0 min 0 W/m 0,0 km/h (0 Bft) 95,65 %
20.08.2021 23:58 16,0 C 14,4 C 13,9 C 93 % 1018,8 hPa 0,0 l/m 0 min 0 min 0 W/m 0,0 km/h (0 Bft) 93,62 %
_ Min-Zeit 05:22 05:10 04:38 17:06 00:00 - - - - 00:04 08:44
Minimum _ 14,2 C 13,3 C 12,8 C 69 % 1015,3 hPa - - - - 0,0 km/h (0 Bft) 51,06 %
_ Max-Zeit 17:36 16:34 13:52 07:16 23:04 11:00 18:08 10:58 13:22 09:58 00:08
Maximum _ 23,0 C 27,2 C 20,6 C 94 % 1018,9 hPa 0,2 l/m 4 min 2 min 1009 W/m 29,0 km/h
S-SW (5 Bft)
100,00 %
Durchschnitt _ 18,3 C 18,0 C 16,3 C 86 % 1016,9 hPa #0,4 l/m #3:26 h #12 min. 227 W/m 6,3 km/h (2 Bft) 96,85 %
© 2021 W. Hausmann